<?xml version="1.0" encoding="UTF-8" standalone="no" ?>
<gpx xmlns="http://www.topografix.com/GPX/1/1" xmlns:xsi="http://www.w3.org/2001/XMLSchema-instance" xsi:schemaLocation="http://www.topografix.com/GPX/1/1 http://www.topografix.com/GPX/1/1/gpx.xsd" version="1.1" creator="VisuGPX - https://www.visugpx.com">
  <metadata>
    <name>La Chapelle en Vercors - Les Baraques</name>
    <desc><![CDATA[Balade entre la Chapelle en Vercors et Les Baraques en Vercors par le GR de pays.]]></desc>
  </metadata>
  <trk>
    <name><![CDATA[2019-09-28 15:03:20]]></name>
    <trkseg>
      <trkpt lat="44.9665" lon="5.41783">
        <ele>902.82</ele>
        <time>2019-09-28T07:13:06Z</time>
      </trkpt>
      <trkpt lat="44.96649" lon="5.41783">
        <ele>902.82</ele>
        <time>2019-09-28T07:13:07Z</time>
      </trkpt>
      <trkpt lat="44.96649" lon="5.41785">
        <ele>899.45</ele>
        <time>2019-09-28T07:13:10Z</time>
      </trkpt>
      <trkpt lat="44.96649" lon="5.41785">
        <ele>899.45</ele>
        <time>2019-09-28T07:13:11Z</time>
      </trkpt>
      <trkpt lat="44.96649" lon="5.41792">
        <ele>899.45</ele>
        <time>2019-09-28T07:13:41Z</time>
      </trkpt>
      <trkpt lat="44.9665" lon="5.41788">
        <ele>899.45</ele>
        <time>2019-09-28T07:14:02Z</time>
      </trkpt>
      <trkpt lat="44.96649" lon="5.41784">
        <ele>899.45</ele>
        <time>2019-09-28T07:14:26Z</time>
      </trkpt>
      <trkpt lat="44.96649" lon="5.41786">
        <ele>899.45</ele>
        <time>2019-09-28T07:14:52Z</time>
      </trkpt>
      <trkpt lat="44.9665" lon="5.41786">
        <ele>899.45</ele>
        <time>2019-09-28T07:15:24Z</time>
      </trkpt>
      <trkpt lat="44.96651" lon="5.41789">
        <ele>899.45</ele>
        <time>2019-09-28T07:15:57Z</time>
      </trkpt>
      <trkpt lat="44.9665" lon="5.41785">
        <ele>899.45</ele>
        <time>2019-09-28T07:16:32Z</time>
      </trkpt>
      <trkpt lat="44.96648" lon="5.41782">
        <ele>899.45</ele>
        <time>2019-09-28T07:17:05Z</time>
      </trkpt>
      <trkpt lat="44.96651" lon="5.41784">
        <ele>899.45</ele>
        <time>2019-09-28T07:17:37Z</time>
      </trkpt>
      <trkpt lat="44.96652" lon="5.4178">
        <ele>899.45</ele>
        <time>2019-09-28T07:18:10Z</time>
      </trkpt>
      <trkpt lat="44.96651" lon="5.41781">
        <ele>899.45</ele>
        <time>2019-09-28T07:18:42Z</time>
      </trkpt>
      <trkpt lat="44.96648" lon="5.41785">
        <ele>899.45</ele>
        <time>2019-09-28T07:19:15Z</time>
      </trkpt>
      <trkpt lat="44.96647" lon="5.41781">
        <ele>899.45</ele>
        <time>2019-09-28T07:19:45Z</time>
      </trkpt>
      <trkpt lat="44.9665" lon="5.41785">
        <ele>899.45</ele>
        <time>2019-09-28T07:20:22Z</time>
      </trkpt>
      <trkpt lat="44.9665" lon="5.41783">
        <ele>899.45</ele>
        <time>2019-09-28T07:21:01Z</time>
      </trkpt>
      <trkpt lat="44.96649" lon="5.41784">
        <ele>899.45</ele>
        <time>2019-09-28T07:21:45Z</time>
      </trkpt>
      <trkpt lat="44.96651" lon="5.41789">
        <ele>899.93</ele>
        <time>2019-09-28T07:22:24Z</time>
      </trkpt>
      <trkpt lat="44.9665" lon="5.41788">
        <ele>899.93</ele>
        <time>2019-09-28T07:22:54Z</time>
      </trkpt>
      <trkpt lat="44.9665" lon="5.41785">
        <ele>900.89</ele>
        <time>2019-09-28T07:23:20Z</time>
      </trkpt>
      <trkpt lat="44.9665" lon="5.41784">
        <ele>899.93</ele>
        <time>2019-09-28T07:23:27Z</time>
      </trkpt>
      <trkpt lat="44.96651" lon="5.4178">
        <ele>899.93</ele>
        <time>2019-09-28T07:23:49Z</time>
      </trkpt>
      <trkpt lat="44.96643" lon="5.41776">
        <ele>899.93</ele>
        <time>2019-09-28T07:24:04Z</time>
      </trkpt>
      <trkpt lat="44.96644" lon="5.41776">
        <ele>899.93</ele>
        <time>2019-09-28T07:24:29Z</time>
      </trkpt>
      <trkpt lat="44.96631" lon="5.41763">
        <ele>899.93</ele>
        <time>2019-09-28T07:24:48Z</time>
      </trkpt>
      <trkpt lat="44.96628" lon="5.41758">
        <ele>899.93</ele>
        <time>2019-09-28T07:25:00Z</time>
      </trkpt>
      <trkpt lat="44.9662" lon="5.41745">
        <ele>899.93</ele>
        <time>2019-09-28T07:25:16Z</time>
      </trkpt>
      <trkpt lat="44.96631" lon="5.41737">
        <ele>898.97</ele>
        <time>2019-09-28T07:25:34Z</time>
      </trkpt>
      <trkpt lat="44.96644" lon="5.41734">
        <ele>897.05</ele>
        <time>2019-09-28T07:25:50Z</time>
      </trkpt>
      <trkpt lat="44.96658" lon="5.41725">
        <ele>894.64</ele>
        <time>2019-09-28T07:26:11Z</time>
      </trkpt>
      <trkpt lat="44.96668" lon="5.41722">
        <ele>892.72</ele>
        <time>2019-09-28T07:26:29Z</time>
      </trkpt>
      <trkpt lat="44.96669" lon="5.4172">
        <ele>892.72</ele>
        <time>2019-09-28T07:26:47Z</time>
      </trkpt>
      <trkpt lat="44.96671" lon="5.41716">
        <ele>892.24</ele>
        <time>2019-09-28T07:27:13Z</time>
      </trkpt>
      <trkpt lat="44.96671" lon="5.41719">
        <ele>892.24</ele>
        <time>2019-09-28T07:27:38Z</time>
      </trkpt>
      <trkpt lat="44.96672" lon="5.41717">
        <ele>892.24</ele>
        <time>2019-09-28T07:27:54Z</time>
      </trkpt>
      <trkpt lat="44.96675" lon="5.41718">
        <ele>892.24</ele>
        <time>2019-09-28T07:28:27Z</time>
      </trkpt>
      <trkpt lat="44.96675" lon="5.41723">
        <ele>892.24</ele>
        <time>2019-09-28T07:29:02Z</time>
      </trkpt>
      <trkpt lat="44.9668" lon="5.41727">
        <ele>891.76</ele>
        <time>2019-09-28T07:29:23Z</time>
      </trkpt>
      <trkpt lat="44.96692" lon="5.4172">
        <ele>890.32</ele>
        <time>2019-09-28T07:29:42Z</time>
      </trkpt>
      <trkpt lat="44.96694" lon="5.41716">
        <ele>890.32</ele>
        <time>2019-09-28T07:29:58Z</time>
      </trkpt>
      <trkpt lat="44.967" lon="5.41704">
        <ele>890.32</ele>
        <time>2019-09-28T07:30:12Z</time>
      </trkpt>
      <trkpt lat="44.96705" lon="5.4168">
        <ele>889.84</ele>
        <time>2019-09-28T07:30:30Z</time>
      </trkpt>
      <trkpt lat="44.96711" lon="5.41662">
        <ele>889.36</ele>
        <time>2019-09-28T07:30:46Z</time>
      </trkpt>
      <trkpt lat="44.9672" lon="5.4164">
        <ele>889.36</ele>
        <time>2019-09-28T07:31:06Z</time>
      </trkpt>
      <trkpt lat="44.96722" lon="5.41623">
        <ele>889.36</ele>
        <time>2019-09-28T07:31:23Z</time>
      </trkpt>
      <trkpt lat="44.96722" lon="5.41621">
        <ele>888.88</ele>
        <time>2019-09-28T07:31:44Z</time>
      </trkpt>
      <trkpt lat="44.9672" lon="5.41623">
        <ele>888.4</ele>
        <time>2019-09-28T07:32:14Z</time>
      </trkpt>
      <trkpt lat="44.96726" lon="5.41611">
        <ele>888.4</ele>
        <time>2019-09-28T07:32:37Z</time>
      </trkpt>
      <trkpt lat="44.96733" lon="5.41587">
        <ele>887.91</ele>
        <time>2019-09-28T07:32:56Z</time>
      </trkpt>
      <trkpt lat="44.96734" lon="5.41578">
        <ele>887.91</ele>
        <time>2019-09-28T07:33:14Z</time>
      </trkpt>
      <trkpt lat="44.96734" lon="5.41563">
        <ele>887.43</ele>
        <time>2019-09-28T07:33:26Z</time>
      </trkpt>
      <trkpt lat="44.96739" lon="5.41544">
        <ele>887.43</ele>
        <time>2019-09-28T07:33:42Z</time>
      </trkpt>
      <trkpt lat="44.9675" lon="5.41527">
        <ele>887.43</ele>
        <time>2019-09-28T07:33:59Z</time>
      </trkpt>
      <trkpt lat="44.96757" lon="5.41507">
        <ele>887.43</ele>
        <time>2019-09-28T07:34:16Z</time>
      </trkpt>
      <trkpt lat="44.96764" lon="5.41487">
        <ele>887.43</ele>
        <time>2019-09-28T07:34:33Z</time>
      </trkpt>
      <trkpt lat="44.96764" lon="5.41484">
        <ele>887.43</ele>
        <time>2019-09-28T07:34:35Z</time>
      </trkpt>
      <trkpt lat="44.96769" lon="5.41471">
        <ele>887.43</ele>
        <time>2019-09-28T07:34:46Z</time>
      </trkpt>
      <trkpt lat="44.96787" lon="5.41454">
        <ele>887.43</ele>
        <time>2019-09-28T07:35:05Z</time>
      </trkpt>
      <trkpt lat="44.96798" lon="5.41432">
        <ele>886.95</ele>
        <time>2019-09-28T07:35:24Z</time>
      </trkpt>
      <trkpt lat="44.96794" lon="5.41411">
        <ele>886.47</ele>
        <time>2019-09-28T07:35:40Z</time>
      </trkpt>
      <trkpt lat="44.96803" lon="5.41394">
        <ele>885.99</ele>
        <time>2019-09-28T07:35:55Z</time>
      </trkpt>
      <trkpt lat="44.96795" lon="5.41382">
        <ele>885.51</ele>
        <time>2019-09-28T07:36:11Z</time>
      </trkpt>
      <trkpt lat="44.96795" lon="5.41377">
        <ele>885.51</ele>
        <time>2019-09-28T07:36:37Z</time>
      </trkpt>
      <trkpt lat="44.96796" lon="5.41373">
        <ele>885.51</ele>
        <time>2019-09-28T07:36:53Z</time>
      </trkpt>
      <trkpt lat="44.96799" lon="5.41363">
        <ele>885.51</ele>
        <time>2019-09-28T07:37:09Z</time>
      </trkpt>
      <trkpt lat="44.96802" lon="5.41354">
        <ele>885.51</ele>
        <time>2019-09-28T07:37:24Z</time>
      </trkpt>
      <trkpt lat="44.96808" lon="5.41331">
        <ele>884.07</ele>
        <time>2019-09-28T07:37:44Z</time>
      </trkpt>
      <trkpt lat="44.96814" lon="5.41308">
        <ele>883.59</ele>
        <time>2019-09-28T07:38:03Z</time>
      </trkpt>
      <trkpt lat="44.96817" lon="5.41284">
        <ele>883.11</ele>
        <time>2019-09-28T07:38:21Z</time>
      </trkpt>
      <trkpt lat="44.96824" lon="5.41263">
        <ele>882.15</ele>
        <time>2019-09-28T07:38:38Z</time>
      </trkpt>
      <trkpt lat="44.96828" lon="5.41237">
        <ele>880.71</ele>
        <time>2019-09-28T07:38:57Z</time>
      </trkpt>
      <trkpt lat="44.96837" lon="5.41215">
        <ele>879.74</ele>
        <time>2019-09-28T07:39:17Z</time>
      </trkpt>
      <trkpt lat="44.96842" lon="5.41197">
        <ele>877.82</ele>
        <time>2019-09-28T07:39:34Z</time>
      </trkpt>
      <trkpt lat="44.96849" lon="5.41176">
        <ele>875.9</ele>
        <time>2019-09-28T07:39:53Z</time>
      </trkpt>
      <trkpt lat="44.96855" lon="5.41155">
        <ele>873.5</ele>
        <time>2019-09-28T07:40:12Z</time>
      </trkpt>
      <trkpt lat="44.96867" lon="5.41136">
        <ele>872.05</ele>
        <time>2019-09-28T07:40:33Z</time>
      </trkpt>
      <trkpt lat="44.96876" lon="5.41117">
        <ele>870.13</ele>
        <time>2019-09-28T07:40:53Z</time>
      </trkpt>
      <trkpt lat="44.96886" lon="5.41104">
        <ele>869.17</ele>
        <time>2019-09-28T07:41:10Z</time>
      </trkpt>
      <trkpt lat="44.969" lon="5.4109">
        <ele>866.77</ele>
        <time>2019-09-28T07:41:29Z</time>
      </trkpt>
      <trkpt lat="44.96906" lon="5.41076">
        <ele>865.32</ele>
        <time>2019-09-28T07:41:41Z</time>
      </trkpt>
      <trkpt lat="44.96916" lon="5.41054">
        <ele>863.4</ele>
        <time>2019-09-28T07:42:02Z</time>
      </trkpt>
      <trkpt lat="44.96924" lon="5.41028">
        <ele>861</ele>
        <time>2019-09-28T07:42:23Z</time>
      </trkpt>
      <trkpt lat="44.96922" lon="5.41005">
        <ele>859.08</ele>
        <time>2019-09-28T07:42:41Z</time>
      </trkpt>
      <trkpt lat="44.9692" lon="5.40982">
        <ele>858.59</ele>
        <time>2019-09-28T07:42:58Z</time>
      </trkpt>
      <trkpt lat="44.96925" lon="5.40957">
        <ele>858.11</ele>
        <time>2019-09-28T07:43:16Z</time>
      </trkpt>
      <trkpt lat="44.96924" lon="5.40924">
        <ele>856.67</ele>
        <time>2019-09-28T07:43:37Z</time>
      </trkpt>
      <trkpt lat="44.96925" lon="5.409">
        <ele>855.71</ele>
        <time>2019-09-28T07:43:56Z</time>
      </trkpt>
      <trkpt lat="44.96928" lon="5.40876">
        <ele>855.23</ele>
        <time>2019-09-28T07:44:14Z</time>
      </trkpt>
      <trkpt lat="44.96926" lon="5.40865">
        <ele>854.27</ele>
        <time>2019-09-28T07:44:29Z</time>
      </trkpt>
      <trkpt lat="44.96925" lon="5.40861">
        <ele>856.67</ele>
        <time>2019-09-28T07:44:33Z</time>
      </trkpt>
      <trkpt lat="44.96925" lon="5.40857">
        <ele>855.23</ele>
        <time>2019-09-28T07:44:35Z</time>
      </trkpt>
      <trkpt lat="44.9692" lon="5.4082">
        <ele>855.23</ele>
        <time>2019-09-28T07:44:58Z</time>
      </trkpt>
      <trkpt lat="44.96918" lon="5.40792">
        <ele>854.27</ele>
        <time>2019-09-28T07:45:17Z</time>
      </trkpt>
      <trkpt lat="44.96919" lon="5.40766">
        <ele>851.38</ele>
        <time>2019-09-28T07:45:38Z</time>
      </trkpt>
      <trkpt lat="44.96927" lon="5.40749">
        <ele>849.46</ele>
        <time>2019-09-28T07:45:56Z</time>
      </trkpt>
      <trkpt lat="44.96925" lon="5.40729">
        <ele>847.54</ele>
        <time>2019-09-28T07:46:13Z</time>
      </trkpt>
      <trkpt lat="44.96927" lon="5.40713">
        <ele>846.1</ele>
        <time>2019-09-28T07:46:29Z</time>
      </trkpt>
      <trkpt lat="44.96928" lon="5.40698">
        <ele>844.66</ele>
        <time>2019-09-28T07:46:45Z</time>
      </trkpt>
      <trkpt lat="44.96928" lon="5.4068">
        <ele>843.21</ele>
        <time>2019-09-28T07:47:00Z</time>
      </trkpt>
      <trkpt lat="44.96926" lon="5.40656">
        <ele>842.25</ele>
        <time>2019-09-28T07:47:19Z</time>
      </trkpt>
      <trkpt lat="44.96924" lon="5.40638">
        <ele>841.29</ele>
        <time>2019-09-28T07:47:35Z</time>
      </trkpt>
      <trkpt lat="44.96923" lon="5.4061">
        <ele>840.33</ele>
        <time>2019-09-28T07:47:55Z</time>
      </trkpt>
      <trkpt lat="44.96923" lon="5.40601">
        <ele>840.33</ele>
        <time>2019-09-28T07:48:02Z</time>
      </trkpt>
      <trkpt lat="44.96924" lon="5.40575">
        <ele>839.85</ele>
        <time>2019-09-28T07:48:20Z</time>
      </trkpt>
      <trkpt lat="44.96923" lon="5.40547">
        <ele>839.37</ele>
        <time>2019-09-28T07:48:38Z</time>
      </trkpt>
      <trkpt lat="44.96922" lon="5.40518">
        <ele>838.89</ele>
        <time>2019-09-28T07:48:59Z</time>
      </trkpt>
      <trkpt lat="44.96925" lon="5.40499">
        <ele>838.41</ele>
        <time>2019-09-28T07:49:17Z</time>
      </trkpt>
      <trkpt lat="44.96929" lon="5.40485">
        <ele>837.93</ele>
        <time>2019-09-28T07:49:28Z</time>
      </trkpt>
      <trkpt lat="44.96934" lon="5.40458">
        <ele>836.96</ele>
        <time>2019-09-28T07:49:48Z</time>
      </trkpt>
      <trkpt lat="44.96947" lon="5.40439">
        <ele>836.48</ele>
        <time>2019-09-28T07:50:07Z</time>
      </trkpt>
      <trkpt lat="44.96955" lon="5.40433">
        <ele>836</ele>
        <time>2019-09-28T07:50:17Z</time>
      </trkpt>
      <trkpt lat="44.96973" lon="5.40422">
        <ele>835.52</ele>
        <time>2019-09-28T07:50:36Z</time>
      </trkpt>
      <trkpt lat="44.96985" lon="5.40411">
        <ele>835.04</ele>
        <time>2019-09-28T07:50:52Z</time>
      </trkpt>
      <trkpt lat="44.97001" lon="5.40399">
        <ele>833.6</ele>
        <time>2019-09-28T07:51:12Z</time>
      </trkpt>
      <trkpt lat="44.97011" lon="5.40386">
        <ele>833.12</ele>
        <time>2019-09-28T07:51:28Z</time>
      </trkpt>
      <trkpt lat="44.97016" lon="5.40372">
        <ele>832.64</ele>
        <time>2019-09-28T07:51:40Z</time>
      </trkpt>
      <trkpt lat="44.97021" lon="5.40348">
        <ele>831.68</ele>
        <time>2019-09-28T07:51:59Z</time>
      </trkpt>
      <trkpt lat="44.97027" lon="5.40321">
        <ele>831.2</ele>
        <time>2019-09-28T07:52:18Z</time>
      </trkpt>
      <trkpt lat="44.97033" lon="5.40294">
        <ele>830.24</ele>
        <time>2019-09-28T07:52:39Z</time>
      </trkpt>
      <trkpt lat="44.97036" lon="5.40268">
        <ele>830.24</ele>
        <time>2019-09-28T07:52:58Z</time>
      </trkpt>
      <trkpt lat="44.97046" lon="5.40239">
        <ele>829.76</ele>
        <time>2019-09-28T07:53:20Z</time>
      </trkpt>
      <trkpt lat="44.97053" lon="5.40221">
        <ele>829.76</ele>
        <time>2019-09-28T07:53:35Z</time>
      </trkpt>
      <trkpt lat="44.97055" lon="5.40215">
        <ele>829.76</ele>
        <time>2019-09-28T07:53:39Z</time>
      </trkpt>
      <trkpt lat="44.97062" lon="5.40188">
        <ele>831.2</ele>
        <time>2019-09-28T07:53:59Z</time>
      </trkpt>
      <trkpt lat="44.97069" lon="5.40162">
        <ele>831.68</ele>
        <time>2019-09-28T07:54:18Z</time>
      </trkpt>
      <trkpt lat="44.97077" lon="5.40145">
        <ele>832.16</ele>
        <time>2019-09-28T07:54:35Z</time>
      </trkpt>
      <trkpt lat="44.97086" lon="5.40135">
        <ele>832.16</ele>
        <time>2019-09-28T07:54:53Z</time>
      </trkpt>
      <trkpt lat="44.97086" lon="5.40135">
        <ele>830.72</ele>
        <time>2019-09-28T07:55:04Z</time>
      </trkpt>
      <trkpt lat="44.97086" lon="5.40135">
        <ele>830.72</ele>
        <time>2019-09-28T07:55:27Z</time>
      </trkpt>
      <trkpt lat="44.97087" lon="5.40137">
        <ele>830.72</ele>
        <time>2019-09-28T07:55:47Z</time>
      </trkpt>
      <trkpt lat="44.97088" lon="5.40136">
        <ele>830.72</ele>
        <time>2019-09-28T07:56:00Z</time>
      </trkpt>
      <trkpt lat="44.97087" lon="5.40129">
        <ele>823.51</ele>
        <time>2019-09-28T07:56:13Z</time>
      </trkpt>
      <trkpt lat="44.97088" lon="5.40129">
        <ele>836</ele>
        <time>2019-09-28T07:56:14Z</time>
      </trkpt>
      <trkpt lat="44.97088" lon="5.40129">
        <ele>832.64</ele>
        <time>2019-09-28T07:56:15Z</time>
      </trkpt>
      <trkpt lat="44.97088" lon="5.40129">
        <ele>831.2</ele>
        <time>2019-09-28T07:56:17Z</time>
      </trkpt>
      <trkpt lat="44.97087" lon="5.40127">
        <ele>828.31</ele>
        <time>2019-09-28T07:56:26Z</time>
      </trkpt>
      <trkpt lat="44.97086" lon="5.40127">
        <ele>833.6</ele>
        <time>2019-09-28T07:56:27Z</time>
      </trkpt>
      <trkpt lat="44.97086" lon="5.40127">
        <ele>833.6</ele>
        <time>2019-09-28T07:56:28Z</time>
      </trkpt>
      <trkpt lat="44.97086" lon="5.40127">
        <ele>831.68</ele>
        <time>2019-09-28T07:56:30Z</time>
      </trkpt>
      <trkpt lat="44.97086" lon="5.40134">
        <ele>831.68</ele>
        <time>2019-09-28T07:56:44Z</time>
      </trkpt>
      <trkpt lat="44.97088" lon="5.40132">
        <ele>831.68</ele>
        <time>2019-09-28T07:57:03Z</time>
      </trkpt>
      <trkpt lat="44.97088" lon="5.40128">
        <ele>831.68</ele>
        <time>2019-09-28T07:57:24Z</time>
      </trkpt>
      <trkpt lat="44.97089" lon="5.40132">
        <ele>831.68</ele>
        <time>2019-09-28T07:57:47Z</time>
      </trkpt>
      <trkpt lat="44.97091" lon="5.40133">
        <ele>831.68</ele>
        <time>2019-09-28T07:58:05Z</time>
      </trkpt>
      <trkpt lat="44.97103" lon="5.4014">
        <ele>831.68</ele>
        <time>2019-09-28T07:58:21Z</time>
      </trkpt>
      <trkpt lat="44.97116" lon="5.40151">
        <ele>831.68</ele>
        <time>2019-09-28T07:58:38Z</time>
      </trkpt>
      <trkpt lat="44.97132" lon="5.4016">
        <ele>831.2</ele>
        <time>2019-09-28T07:58:56Z</time>
      </trkpt>
      <trkpt lat="44.9715" lon="5.4017">
        <ele>829.76</ele>
        <time>2019-09-28T07:59:15Z</time>
      </trkpt>
      <trkpt lat="44.97167" lon="5.40183">
        <ele>828.31</ele>
        <time>2019-09-28T07:59:35Z</time>
      </trkpt>
      <trkpt lat="44.97182" lon="5.40192">
        <ele>827.35</ele>
        <time>2019-09-28T07:59:53Z</time>
      </trkpt>
      <trkpt lat="44.97183" lon="5.40193">
        <ele>827.35</ele>
        <time>2019-09-28T07:59:54Z</time>
      </trkpt>
      <trkpt lat="44.972" lon="5.40203">
        <ele>826.87</ele>
        <time>2019-09-28T08:00:13Z</time>
      </trkpt>
      <trkpt lat="44.97221" lon="5.40211">
        <ele>826.87</ele>
        <time>2019-09-28T08:00:32Z</time>
      </trkpt>
      <trkpt lat="44.97222" lon="5.40212">
        <ele>826.87</ele>
        <time>2019-09-28T08:00:52Z</time>
      </trkpt>
      <trkpt lat="44.97234" lon="5.4022">
        <ele>826.39</ele>
        <time>2019-09-28T08:01:13Z</time>
      </trkpt>
      <trkpt lat="44.9725" lon="5.4023">
        <ele>826.39</ele>
        <time>2019-09-28T08:01:31Z</time>
      </trkpt>
      <trkpt lat="44.97265" lon="5.4024">
        <ele>826.39</ele>
        <time>2019-09-28T08:01:47Z</time>
      </trkpt>
      <trkpt lat="44.97275" lon="5.40244">
        <ele>826.39</ele>
        <time>2019-09-28T08:02:01Z</time>
      </trkpt>
      <trkpt lat="44.97297" lon="5.4025">
        <ele>826.39</ele>
        <time>2019-09-28T08:02:23Z</time>
      </trkpt>
      <trkpt lat="44.97314" lon="5.40262">
        <ele>827.83</ele>
        <time>2019-09-28T08:02:41Z</time>
      </trkpt>
      <trkpt lat="44.97315" lon="5.40262">
        <ele>827.83</ele>
        <time>2019-09-28T08:02:42Z</time>
      </trkpt>
      <trkpt lat="44.9733" lon="5.40271">
        <ele>827.83</ele>
        <time>2019-09-28T08:02:59Z</time>
      </trkpt>
      <trkpt lat="44.97333" lon="5.40273">
        <ele>828.31</ele>
        <time>2019-09-28T08:03:02Z</time>
      </trkpt>
      <trkpt lat="44.97347" lon="5.40284">
        <ele>828.79</ele>
        <time>2019-09-28T08:03:20Z</time>
      </trkpt>
      <trkpt lat="44.97351" lon="5.40285">
        <ele>829.27</ele>
        <time>2019-09-28T08:03:24Z</time>
      </trkpt>
      <trkpt lat="44.97368" lon="5.4029">
        <ele>829.27</ele>
        <time>2019-09-28T08:03:43Z</time>
      </trkpt>
      <trkpt lat="44.9737" lon="5.40292">
        <ele>829.76</ele>
        <time>2019-09-28T08:04:00Z</time>
      </trkpt>
      <trkpt lat="44.97369" lon="5.40289">
        <ele>829.76</ele>
        <time>2019-09-28T08:04:23Z</time>
      </trkpt>
      <trkpt lat="44.97368" lon="5.40294">
        <ele>829.76</ele>
        <time>2019-09-28T08:04:39Z</time>
      </trkpt>
      <trkpt lat="44.97375" lon="5.40307">
        <ele>830.24</ele>
        <time>2019-09-28T08:04:57Z</time>
      </trkpt>
      <trkpt lat="44.97379" lon="5.40313">
        <ele>830.72</ele>
        <time>2019-09-28T08:05:04Z</time>
      </trkpt>
      <trkpt lat="44.97395" lon="5.40329">
        <ele>831.2</ele>
        <time>2019-09-28T08:05:23Z</time>
      </trkpt>
      <trkpt lat="44.97409" lon="5.40333">
        <ele>830.24</ele>
        <time>2019-09-28T08:05:40Z</time>
      </trkpt>
      <trkpt lat="44.97423" lon="5.40328">
        <ele>830.24</ele>
        <time>2019-09-28T08:05:56Z</time>
      </trkpt>
      <trkpt lat="44.97424" lon="5.40328">
        <ele>829.76</ele>
        <time>2019-09-28T08:06:14Z</time>
      </trkpt>
      <trkpt lat="44.97429" lon="5.40337">
        <ele>829.76</ele>
        <time>2019-09-28T08:06:28Z</time>
      </trkpt>
      <trkpt lat="44.97424" lon="5.40351">
        <ele>832.16</ele>
        <time>2019-09-28T08:06:44Z</time>
      </trkpt>
      <trkpt lat="44.97417" lon="5.40365">
        <ele>833.6</ele>
        <time>2019-09-28T08:06:58Z</time>
      </trkpt>
      <trkpt lat="44.97416" lon="5.40377">
        <ele>834.56</ele>
        <time>2019-09-28T08:07:12Z</time>
      </trkpt>
      <trkpt lat="44.97421" lon="5.40386">
        <ele>835.52</ele>
        <time>2019-09-28T08:07:28Z</time>
      </trkpt>
      <trkpt lat="44.97424" lon="5.40389">
        <ele>835.52</ele>
        <time>2019-09-28T08:07:44Z</time>
      </trkpt>
      <trkpt lat="44.97434" lon="5.40404">
        <ele>837.45</ele>
        <time>2019-09-28T08:08:01Z</time>
      </trkpt>
      <trkpt lat="44.97447" lon="5.40418">
        <ele>839.37</ele>
        <time>2019-09-28T08:08:20Z</time>
      </trkpt>
      <trkpt lat="44.97456" lon="5.40427">
        <ele>840.81</ele>
        <time>2019-09-28T08:08:35Z</time>
      </trkpt>
      <trkpt lat="44.97465" lon="5.40433">
        <ele>841.29</ele>
        <time>2019-09-28T08:08:51Z</time>
      </trkpt>
      <trkpt lat="44.97484" lon="5.40447">
        <ele>841.29</ele>
        <time>2019-09-28T08:09:11Z</time>
      </trkpt>
      <trkpt lat="44.97486" lon="5.40447">
        <ele>847.06</ele>
        <time>2019-09-28T08:09:13Z</time>
      </trkpt>
      <trkpt lat="44.97488" lon="5.40449">
        <ele>842.25</ele>
        <time>2019-09-28T08:09:16Z</time>
      </trkpt>
      <trkpt lat="44.97501" lon="5.40454">
        <ele>843.21</ele>
        <time>2019-09-28T08:09:30Z</time>
      </trkpt>
      <trkpt lat="44.97511" lon="5.40458">
        <ele>846.58</ele>
        <time>2019-09-28T08:09:41Z</time>
      </trkpt>
      <trkpt lat="44.97527" lon="5.40463">
        <ele>846.1</ele>
        <time>2019-09-28T08:09:58Z</time>
      </trkpt>
      <trkpt lat="44.97544" lon="5.4048">
        <ele>848.02</ele>
        <time>2019-09-28T08:10:19Z</time>
      </trkpt>
      <trkpt lat="44.97559" lon="5.40496">
        <ele>850.42</ele>
        <time>2019-09-28T08:10:39Z</time>
      </trkpt>
      <trkpt lat="44.97565" lon="5.40498">
        <ele>850.9</ele>
        <time>2019-09-28T08:10:56Z</time>
      </trkpt>
      <trkpt lat="44.97572" lon="5.40501">
        <ele>852.35</ele>
        <time>2019-09-28T08:11:11Z</time>
      </trkpt>
      <trkpt lat="44.97571" lon="5.40501">
        <ele>851.87</ele>
        <time>2019-09-28T08:11:40Z</time>
      </trkpt>
      <trkpt lat="44.97582" lon="5.40507">
        <ele>853.79</ele>
        <time>2019-09-28T08:11:55Z</time>
      </trkpt>
      <trkpt lat="44.97597" lon="5.40511">
        <ele>856.19</ele>
        <time>2019-09-28T08:12:13Z</time>
      </trkpt>
      <trkpt lat="44.97606" lon="5.40514">
        <ele>858.11</ele>
        <time>2019-09-28T08:12:31Z</time>
      </trkpt>
      <trkpt lat="44.97613" lon="5.40518">
        <ele>858.59</ele>
        <time>2019-09-28T08:13:00Z</time>
      </trkpt>
      <trkpt lat="44.97626" lon="5.40519">
        <ele>861</ele>
        <time>2019-09-28T08:13:19Z</time>
      </trkpt>
      <trkpt lat="44.97636" lon="5.40522">
        <ele>862.44</ele>
        <time>2019-09-28T08:13:35Z</time>
      </trkpt>
      <trkpt lat="44.97647" lon="5.40525">
        <ele>863.88</ele>
        <time>2019-09-28T08:13:49Z</time>
      </trkpt>
      <trkpt lat="44.97654" lon="5.40527">
        <ele>865.32</ele>
        <time>2019-09-28T08:14:00Z</time>
      </trkpt>
      <trkpt lat="44.97669" lon="5.40528">
        <ele>866.77</ele>
        <time>2019-09-28T08:14:17Z</time>
      </trkpt>
      <trkpt lat="44.97685" lon="5.40528">
        <ele>868.69</ele>
        <time>2019-09-28T08:14:34Z</time>
      </trkpt>
      <trkpt lat="44.97684" lon="5.40529">
        <ele>869.17</ele>
        <time>2019-09-28T08:14:41Z</time>
      </trkpt>
      <trkpt lat="44.97686" lon="5.4053">
        <ele>873.5</ele>
        <time>2019-09-28T08:14:43Z</time>
      </trkpt>
      <trkpt lat="44.97686" lon="5.40529">
        <ele>870.13</ele>
        <time>2019-09-28T08:14:44Z</time>
      </trkpt>
      <trkpt lat="44.97686" lon="5.40527">
        <ele>869.17</ele>
        <time>2019-09-28T08:14:46Z</time>
      </trkpt>
      <trkpt lat="44.97685" lon="5.40527">
        <ele>872.53</ele>
        <time>2019-09-28T08:14:52Z</time>
      </trkpt>
      <trkpt lat="44.97686" lon="5.40527">
        <ele>869.65</ele>
        <time>2019-09-28T08:14:53Z</time>
      </trkpt>
      <trkpt lat="44.97688" lon="5.40526">
        <ele>869.65</ele>
        <time>2019-09-28T08:15:07Z</time>
      </trkpt>
      <trkpt lat="44.97682" lon="5.40534">
        <ele>869.65</ele>
        <time>2019-09-28T08:15:34Z</time>
      </trkpt>
      <trkpt lat="44.97682" lon="5.40533">
        <ele>869.65</ele>
        <time>2019-09-28T08:16:04Z</time>
      </trkpt>
      <trkpt lat="44.97683" lon="5.40537">
        <ele>870.13</ele>
        <time>2019-09-28T08:16:38Z</time>
      </trkpt>
      <trkpt lat="44.97694" lon="5.40528">
        <ele>870.13</ele>
        <time>2019-09-28T08:16:58Z</time>
      </trkpt>
      <trkpt lat="44.97704" lon="5.40526">
        <ele>871.57</ele>
        <time>2019-09-28T08:17:08Z</time>
      </trkpt>
      <trkpt lat="44.97721" lon="5.40529">
        <ele>872.53</ele>
        <time>2019-09-28T08:17:23Z</time>
      </trkpt>
      <trkpt lat="44.97734" lon="5.40528">
        <ele>874.46</ele>
        <time>2019-09-28T08:17:37Z</time>
      </trkpt>
      <trkpt lat="44.97749" lon="5.40532">
        <ele>875.42</ele>
        <time>2019-09-28T08:17:52Z</time>
      </trkpt>
      <trkpt lat="44.97763" lon="5.40537">
        <ele>876.86</ele>
        <time>2019-09-28T08:18:07Z</time>
      </trkpt>
      <trkpt lat="44.97778" lon="5.40539">
        <ele>877.82</ele>
        <time>2019-09-28T08:18:24Z</time>
      </trkpt>
      <trkpt lat="44.97782" lon="5.4054">
        <ele>877.82</ele>
        <time>2019-09-28T08:18:29Z</time>
      </trkpt>
      <trkpt lat="44.97795" lon="5.40542">
        <ele>874.94</ele>
        <time>2019-09-28T08:18:41Z</time>
      </trkpt>
      <trkpt lat="44.978" lon="5.40543">
        <ele>876.86</ele>
        <time>2019-09-28T08:18:47Z</time>
      </trkpt>
      <trkpt lat="44.97801" lon="5.40543">
        <ele>881.67</ele>
        <time>2019-09-28T08:18:48Z</time>
      </trkpt>
      <trkpt lat="44.97811" lon="5.40545">
        <ele>879.26</ele>
        <time>2019-09-28T08:19:02Z</time>
      </trkpt>
      <trkpt lat="44.97829" lon="5.40549">
        <ele>879.26</ele>
        <time>2019-09-28T08:19:18Z</time>
      </trkpt>
      <trkpt lat="44.97836" lon="5.40559">
        <ele>880.71</ele>
        <time>2019-09-28T08:19:31Z</time>
      </trkpt>
      <trkpt lat="44.97836" lon="5.40568">
        <ele>881.19</ele>
        <time>2019-09-28T08:19:51Z</time>
      </trkpt>
      <trkpt lat="44.97833" lon="5.40578">
        <ele>881.19</ele>
        <time>2019-09-28T08:20:18Z</time>
      </trkpt>
      <trkpt lat="44.97835" lon="5.40571">
        <ele>881.19</ele>
        <time>2019-09-28T08:20:41Z</time>
      </trkpt>
      <trkpt lat="44.97833" lon="5.40567">
        <ele>881.19</ele>
        <time>2019-09-28T08:21:06Z</time>
      </trkpt>
      <trkpt lat="44.97836" lon="5.40561">
        <ele>881.19</ele>
        <time>2019-09-28T08:21:29Z</time>
      </trkpt>
      <trkpt lat="44.97837" lon="5.40561">
        <ele>881.19</ele>
        <time>2019-09-28T08:21:50Z</time>
      </trkpt>
      <trkpt lat="44.97837" lon="5.40563">
        <ele>881.19</ele>
        <time>2019-09-28T08:22:14Z</time>
      </trkpt>
      <trkpt lat="44.97845" lon="5.40556">
        <ele>881.67</ele>
        <time>2019-09-28T08:22:32Z</time>
      </trkpt>
      <trkpt lat="44.97857" lon="5.40553">
        <ele>881.67</ele>
        <time>2019-09-28T08:22:46Z</time>
      </trkpt>
      <trkpt lat="44.97862" lon="5.40552">
        <ele>880.22</ele>
        <time>2019-09-28T08:22:51Z</time>
      </trkpt>
      <trkpt lat="44.97875" lon="5.40552">
        <ele>880.22</ele>
        <time>2019-09-28T08:23:06Z</time>
      </trkpt>
      <trkpt lat="44.97885" lon="5.40551">
        <ele>880.22</ele>
        <time>2019-09-28T08:23:19Z</time>
      </trkpt>
      <trkpt lat="44.97898" lon="5.40555">
        <ele>880.22</ele>
        <time>2019-09-28T08:23:35Z</time>
      </trkpt>
      <trkpt lat="44.97913" lon="5.40559">
        <ele>879.74</ele>
        <time>2019-09-28T08:23:51Z</time>
      </trkpt>
      <trkpt lat="44.97932" lon="5.40565">
        <ele>879.74</ele>
        <time>2019-09-28T08:24:08Z</time>
      </trkpt>
      <trkpt lat="44.97949" lon="5.40569">
        <ele>879.74</ele>
        <time>2019-09-28T08:24:24Z</time>
      </trkpt>
      <trkpt lat="44.97959" lon="5.40575">
        <ele>879.26</ele>
        <time>2019-09-28T08:24:39Z</time>
      </trkpt>
      <trkpt lat="44.97959" lon="5.40578">
        <ele>879.26</ele>
        <time>2019-09-28T08:24:42Z</time>
      </trkpt>
      <trkpt lat="44.97972" lon="5.40588">
        <ele>878.78</ele>
        <time>2019-09-28T08:24:57Z</time>
      </trkpt>
      <trkpt lat="44.97985" lon="5.40596">
        <ele>878.78</ele>
        <time>2019-09-28T08:25:12Z</time>
      </trkpt>
      <trkpt lat="44.98002" lon="5.40606">
        <ele>878.78</ele>
        <time>2019-09-28T08:25:28Z</time>
      </trkpt>
      <trkpt lat="44.98018" lon="5.40615">
        <ele>878.78</ele>
        <time>2019-09-28T08:25:43Z</time>
      </trkpt>
      <trkpt lat="44.98021" lon="5.40617">
        <ele>880.22</ele>
        <time>2019-09-28T08:25:46Z</time>
      </trkpt>
      <trkpt lat="44.98037" lon="5.40625">
        <ele>879.74</ele>
        <time>2019-09-28T08:26:02Z</time>
      </trkpt>
      <trkpt lat="44.98051" lon="5.40634">
        <ele>879.74</ele>
        <time>2019-09-28T08:26:18Z</time>
      </trkpt>
      <trkpt lat="44.98061" lon="5.40644">
        <ele>879.74</ele>
        <time>2019-09-28T08:26:32Z</time>
      </trkpt>
      <trkpt lat="44.98079" lon="5.40658">
        <ele>879.26</ele>
        <time>2019-09-28T08:26:48Z</time>
      </trkpt>
      <trkpt lat="44.98092" lon="5.40667">
        <ele>879.26</ele>
        <time>2019-09-28T08:27:03Z</time>
      </trkpt>
      <trkpt lat="44.98103" lon="5.40683">
        <ele>877.82</ele>
        <time>2019-09-28T08:27:20Z</time>
      </trkpt>
      <trkpt lat="44.98112" lon="5.40691">
        <ele>876.86</ele>
        <time>2019-09-28T08:27:35Z</time>
      </trkpt>
      <trkpt lat="44.98118" lon="5.40707">
        <ele>875.9</ele>
        <time>2019-09-28T08:27:53Z</time>
      </trkpt>
      <trkpt lat="44.98126" lon="5.40724">
        <ele>874.94</ele>
        <time>2019-09-28T08:28:09Z</time>
      </trkpt>
      <trkpt lat="44.9814" lon="5.40732">
        <ele>874.46</ele>
        <time>2019-09-28T08:28:23Z</time>
      </trkpt>
      <trkpt lat="44.98157" lon="5.40739">
        <ele>873.01</ele>
        <time>2019-09-28T08:28:39Z</time>
      </trkpt>
      <trkpt lat="44.98175" lon="5.40749">
        <ele>872.05</ele>
        <time>2019-09-28T08:29:00Z</time>
      </trkpt>
      <trkpt lat="44.98188" lon="5.40766">
        <ele>869.65</ele>
        <time>2019-09-28T08:29:21Z</time>
      </trkpt>
      <trkpt lat="44.98193" lon="5.40791">
        <ele>868.21</ele>
        <time>2019-09-28T08:29:41Z</time>
      </trkpt>
      <trkpt lat="44.98199" lon="5.40811">
        <ele>865.8</ele>
        <time>2019-09-28T08:29:59Z</time>
      </trkpt>
      <trkpt lat="44.98206" lon="5.40831">
        <ele>864.36</ele>
        <time>2019-09-28T08:30:16Z</time>
      </trkpt>
      <trkpt lat="44.98214" lon="5.40841">
        <ele>864.36</ele>
        <time>2019-09-28T08:30:35Z</time>
      </trkpt>
      <trkpt lat="44.98216" lon="5.40843">
        <ele>864.36</ele>
        <time>2019-09-28T08:30:48Z</time>
      </trkpt>
      <trkpt lat="44.98221" lon="5.40843">
        <ele>863.88</ele>
        <time>2019-09-28T08:31:03Z</time>
      </trkpt>
      <trkpt lat="44.9822" lon="5.40843">
        <ele>860.52</ele>
        <time>2019-09-28T08:31:11Z</time>
      </trkpt>
      <trkpt lat="44.9822" lon="5.40843">
        <ele>866.29</ele>
        <time>2019-09-28T08:31:12Z</time>
      </trkpt>
      <trkpt lat="44.98222" lon="5.40845">
        <ele>863.4</ele>
        <time>2019-09-28T08:31:50Z</time>
      </trkpt>
      <trkpt lat="44.98222" lon="5.40845">
        <ele>861.48</ele>
        <time>2019-09-28T08:32:03Z</time>
      </trkpt>
      <trkpt lat="44.98222" lon="5.40845">
        <ele>861.48</ele>
        <time>2019-09-28T08:32:04Z</time>
      </trkpt>
      <trkpt lat="44.98221" lon="5.40845">
        <ele>864.36</ele>
        <time>2019-09-28T08:32:06Z</time>
      </trkpt>
      <trkpt lat="44.98221" lon="5.40845">
        <ele>861.48</ele>
        <time>2019-09-28T08:32:07Z</time>
      </trkpt>
      <trkpt lat="44.98221" lon="5.40844">
        <ele>864.36</ele>
        <time>2019-09-28T08:32:09Z</time>
      </trkpt>
      <trkpt lat="44.98221" lon="5.40844">
        <ele>864.36</ele>
        <time>2019-09-28T08:32:10Z</time>
      </trkpt>
      <trkpt lat="44.9822" lon="5.40843">
        <ele>863.4</ele>
        <time>2019-09-28T08:32:13Z</time>
      </trkpt>
      <trkpt lat="44.9822" lon="5.40844">
        <ele>860.04</ele>
        <time>2019-09-28T08:32:20Z</time>
      </trkpt>
      <trkpt lat="44.9822" lon="5.40844">
        <ele>866.29</ele>
        <time>2019-09-28T08:32:21Z</time>
      </trkpt>
      <trkpt lat="44.9822" lon="5.40844">
        <ele>861.96</ele>
        <time>2019-09-28T08:32:22Z</time>
      </trkpt>
      <trkpt lat="44.9822" lon="5.40843">
        <ele>856.19</ele>
        <time>2019-09-28T08:32:28Z</time>
      </trkpt>
      <trkpt lat="44.9822" lon="5.40843">
        <ele>864.84</ele>
        <time>2019-09-28T08:32:29Z</time>
      </trkpt>
      <trkpt lat="44.9822" lon="5.40844">
        <ele>868.21</ele>
        <time>2019-09-28T08:32:31Z</time>
      </trkpt>
      <trkpt lat="44.9822" lon="5.40843">
        <ele>863.4</ele>
        <time>2019-09-28T08:32:32Z</time>
      </trkpt>
      <trkpt lat="44.98219" lon="5.4084">
        <ele>863.4</ele>
        <time>2019-09-28T08:32:54Z</time>
      </trkpt>
      <trkpt lat="44.98223" lon="5.40849">
        <ele>863.4</ele>
        <time>2019-09-28T08:33:20Z</time>
      </trkpt>
      <trkpt lat="44.98225" lon="5.40845">
        <ele>863.4</ele>
        <time>2019-09-28T08:33:54Z</time>
      </trkpt>
      <trkpt lat="44.98225" lon="5.40841">
        <ele>863.4</ele>
        <time>2019-09-28T08:34:25Z</time>
      </trkpt>
      <trkpt lat="44.9823" lon="5.40848">
        <ele>862.92</ele>
        <time>2019-09-28T08:35:02Z</time>
      </trkpt>
      <trkpt lat="44.98226" lon="5.40848">
        <ele>862.92</ele>
        <time>2019-09-28T08:35:38Z</time>
      </trkpt>
      <trkpt lat="44.98223" lon="5.40844">
        <ele>862.92</ele>
        <time>2019-09-28T08:36:08Z</time>
      </trkpt>
      <trkpt lat="44.98225" lon="5.40846">
        <ele>862.92</ele>
        <time>2019-09-28T08:36:40Z</time>
      </trkpt>
      <trkpt lat="44.98225" lon="5.40846">
        <ele>862.44</ele>
        <time>2019-09-28T08:37:20Z</time>
      </trkpt>
      <trkpt lat="44.98221" lon="5.4084">
        <ele>862.44</ele>
        <time>2019-09-28T08:37:54Z</time>
      </trkpt>
      <trkpt lat="44.98219" lon="5.40846">
        <ele>861.96</ele>
        <time>2019-09-28T08:38:26Z</time>
      </trkpt>
      <trkpt lat="44.98221" lon="5.40842">
        <ele>861.96</ele>
        <time>2019-09-28T08:38:54Z</time>
      </trkpt>
      <trkpt lat="44.98224" lon="5.40842">
        <ele>861.48</ele>
        <time>2019-09-28T08:39:36Z</time>
      </trkpt>
      <trkpt lat="44.98221" lon="5.40841">
        <ele>861.48</ele>
        <time>2019-09-28T08:40:00Z</time>
      </trkpt>
      <trkpt lat="44.9822" lon="5.40844">
        <ele>861</ele>
        <time>2019-09-28T08:40:41Z</time>
      </trkpt>
      <trkpt lat="44.98223" lon="5.40846">
        <ele>861</ele>
        <time>2019-09-28T08:41:17Z</time>
      </trkpt>
      <trkpt lat="44.98221" lon="5.40842">
        <ele>860.52</ele>
        <time>2019-09-28T08:41:54Z</time>
      </trkpt>
      <trkpt lat="44.98222" lon="5.40842">
        <ele>861.48</ele>
        <time>2019-09-28T08:42:28Z</time>
      </trkpt>
      <trkpt lat="44.9822" lon="5.40842">
        <ele>860.52</ele>
        <time>2019-09-28T08:42:43Z</time>
      </trkpt>
      <trkpt lat="44.98221" lon="5.40842">
        <ele>861.48</ele>
        <time>2019-09-28T08:42:51Z</time>
      </trkpt>
      <trkpt lat="44.98221" lon="5.40843">
        <ele>861.96</ele>
        <time>2019-09-28T08:43:07Z</time>
      </trkpt>
      <trkpt lat="44.98219" lon="5.40843">
        <ele>860.52</ele>
        <time>2019-09-28T08:43:13Z</time>
      </trkpt>
      <trkpt lat="44.9822" lon="5.40844">
        <ele>861.96</ele>
        <time>2019-09-28T08:43:26Z</time>
      </trkpt>
      <trkpt lat="44.98221" lon="5.40845">
        <ele>860.52</ele>
        <time>2019-09-28T08:43:35Z</time>
      </trkpt>
      <trkpt lat="44.98221" lon="5.40845">
        <ele>861.48</ele>
        <time>2019-09-28T08:43:37Z</time>
      </trkpt>
      <trkpt lat="44.98223" lon="5.40852">
        <ele>861.48</ele>
        <time>2019-09-28T08:43:51Z</time>
      </trkpt>
      <trkpt lat="44.98237" lon="5.4086">
        <ele>861</ele>
        <time>2019-09-28T08:44:08Z</time>
      </trkpt>
      <trkpt lat="44.98249" lon="5.40864">
        <ele>861</ele>
        <time>2019-09-28T08:44:22Z</time>
      </trkpt>
      <trkpt lat="44.98249" lon="5.40864">
        <ele>861</ele>
        <time>2019-09-28T08:44:23Z</time>
      </trkpt>
      <trkpt lat="44.98264" lon="5.4087">
        <ele>861</ele>
        <time>2019-09-28T08:44:37Z</time>
      </trkpt>
      <trkpt lat="44.98278" lon="5.40875">
        <ele>861</ele>
        <time>2019-09-28T08:44:53Z</time>
      </trkpt>
      <trkpt lat="44.98295" lon="5.40882">
        <ele>861</ele>
        <time>2019-09-28T08:45:09Z</time>
      </trkpt>
      <trkpt lat="44.98296" lon="5.40882">
        <ele>861</ele>
        <time>2019-09-28T08:45:10Z</time>
      </trkpt>
      <trkpt lat="44.98301" lon="5.40886">
        <ele>860.52</ele>
        <time>2019-09-28T08:45:16Z</time>
      </trkpt>
      <trkpt lat="44.98317" lon="5.40893">
        <ele>860.52</ele>
        <time>2019-09-28T08:45:33Z</time>
      </trkpt>
      <trkpt lat="44.98318" lon="5.40893">
        <ele>860.52</ele>
        <time>2019-09-28T08:45:34Z</time>
      </trkpt>
      <trkpt lat="44.98342" lon="5.40894">
        <ele>860.52</ele>
        <time>2019-09-28T08:45:55Z</time>
      </trkpt>
      <trkpt lat="44.98363" lon="5.40897">
        <ele>862.44</ele>
        <time>2019-09-28T08:46:14Z</time>
      </trkpt>
      <trkpt lat="44.98383" lon="5.4091">
        <ele>862.44</ele>
        <time>2019-09-28T08:46:35Z</time>
      </trkpt>
      <trkpt lat="44.98394" lon="5.40918">
        <ele>861</ele>
        <time>2019-09-28T08:46:46Z</time>
      </trkpt>
      <trkpt lat="44.98412" lon="5.40933">
        <ele>861</ele>
        <time>2019-09-28T08:47:06Z</time>
      </trkpt>
      <trkpt lat="44.98431" lon="5.40944">
        <ele>861</ele>
        <time>2019-09-28T08:47:25Z</time>
      </trkpt>
      <trkpt lat="44.98447" lon="5.40956">
        <ele>862.44</ele>
        <time>2019-09-28T08:47:44Z</time>
      </trkpt>
      <trkpt lat="44.9846" lon="5.40965">
        <ele>861</ele>
        <time>2019-09-28T08:47:59Z</time>
      </trkpt>
      <trkpt lat="44.98474" lon="5.40976">
        <ele>859.56</ele>
        <time>2019-09-28T08:48:16Z</time>
      </trkpt>
      <trkpt lat="44.98489" lon="5.40987">
        <ele>859.56</ele>
        <time>2019-09-28T08:48:32Z</time>
      </trkpt>
      <trkpt lat="44.98506" lon="5.40999">
        <ele>859.56</ele>
        <time>2019-09-28T08:48:50Z</time>
      </trkpt>
      <trkpt lat="44.98522" lon="5.41014">
        <ele>861</ele>
        <time>2019-09-28T08:49:09Z</time>
      </trkpt>
      <trkpt lat="44.98532" lon="5.41035">
        <ele>861.48</ele>
        <time>2019-09-28T08:49:27Z</time>
      </trkpt>
      <trkpt lat="44.98536" lon="5.41042">
        <ele>860.04</ele>
        <time>2019-09-28T08:49:35Z</time>
      </trkpt>
      <trkpt lat="44.98538" lon="5.4105">
        <ele>860.04</ele>
        <time>2019-09-28T08:49:51Z</time>
      </trkpt>
      <trkpt lat="44.98553" lon="5.41066">
        <ele>858.11</ele>
        <time>2019-09-28T08:50:10Z</time>
      </trkpt>
      <trkpt lat="44.98568" lon="5.41085">
        <ele>857.15</ele>
        <time>2019-09-28T08:50:30Z</time>
      </trkpt>
      <trkpt lat="44.9858" lon="5.41099">
        <ele>855.71</ele>
        <time>2019-09-28T08:50:48Z</time>
      </trkpt>
      <trkpt lat="44.98593" lon="5.41113">
        <ele>855.23</ele>
        <time>2019-09-28T08:51:03Z</time>
      </trkpt>
      <trkpt lat="44.98607" lon="5.41127">
        <ele>853.79</ele>
        <time>2019-09-28T08:51:20Z</time>
      </trkpt>
      <trkpt lat="44.98618" lon="5.41137">
        <ele>852.35</ele>
        <time>2019-09-28T08:51:37Z</time>
      </trkpt>
      <trkpt lat="44.98622" lon="5.41144">
        <ele>852.35</ele>
        <time>2019-09-28T08:51:52Z</time>
      </trkpt>
      <trkpt lat="44.98626" lon="5.41148">
        <ele>851.87</ele>
        <time>2019-09-28T08:52:04Z</time>
      </trkpt>
      <trkpt lat="44.98638" lon="5.41153">
        <ele>850.9</ele>
        <time>2019-09-28T08:52:21Z</time>
      </trkpt>
      <trkpt lat="44.98651" lon="5.41161">
        <ele>849.94</ele>
        <time>2019-09-28T08:52:38Z</time>
      </trkpt>
      <trkpt lat="44.98654" lon="5.41162">
        <ele>849.46</ele>
        <time>2019-09-28T08:52:57Z</time>
      </trkpt>
      <trkpt lat="44.98657" lon="5.41165">
        <ele>848.98</ele>
        <time>2019-09-28T08:53:12Z</time>
      </trkpt>
      <trkpt lat="44.98667" lon="5.41179">
        <ele>848.02</ele>
        <time>2019-09-28T08:53:28Z</time>
      </trkpt>
      <trkpt lat="44.98676" lon="5.41204">
        <ele>846.1</ele>
        <time>2019-09-28T08:53:50Z</time>
      </trkpt>
      <trkpt lat="44.98681" lon="5.41222">
        <ele>845.14</ele>
        <time>2019-09-28T08:54:05Z</time>
      </trkpt>
      <trkpt lat="44.98688" lon="5.41237">
        <ele>843.69</ele>
        <time>2019-09-28T08:54:20Z</time>
      </trkpt>
      <trkpt lat="44.98701" lon="5.41248">
        <ele>842.25</ele>
        <time>2019-09-28T08:54:36Z</time>
      </trkpt>
      <trkpt lat="44.98718" lon="5.41258">
        <ele>840.33</ele>
        <time>2019-09-28T08:54:55Z</time>
      </trkpt>
      <trkpt lat="44.9873" lon="5.41268">
        <ele>839.37</ele>
        <time>2019-09-28T08:55:13Z</time>
      </trkpt>
      <trkpt lat="44.98743" lon="5.41274">
        <ele>837.93</ele>
        <time>2019-09-28T08:55:30Z</time>
      </trkpt>
      <trkpt lat="44.98753" lon="5.41276">
        <ele>837.45</ele>
        <time>2019-09-28T08:55:51Z</time>
      </trkpt>
      <trkpt lat="44.98765" lon="5.41277">
        <ele>836.96</ele>
        <time>2019-09-28T08:56:06Z</time>
      </trkpt>
      <trkpt lat="44.98776" lon="5.4128">
        <ele>835.52</ele>
        <time>2019-09-28T08:56:23Z</time>
      </trkpt>
      <trkpt lat="44.9879" lon="5.41278">
        <ele>834.08</ele>
        <time>2019-09-28T08:56:43Z</time>
      </trkpt>
      <trkpt lat="44.98803" lon="5.41275">
        <ele>831.68</ele>
        <time>2019-09-28T08:57:00Z</time>
      </trkpt>
      <trkpt lat="44.98812" lon="5.41278">
        <ele>830.24</ele>
        <time>2019-09-28T08:57:16Z</time>
      </trkpt>
      <trkpt lat="44.98822" lon="5.41285">
        <ele>828.31</ele>
        <time>2019-09-28T08:57:33Z</time>
      </trkpt>
      <trkpt lat="44.98834" lon="5.41296">
        <ele>826.87</ele>
        <time>2019-09-28T08:57:51Z</time>
      </trkpt>
      <trkpt lat="44.98844" lon="5.4131">
        <ele>825.43</ele>
        <time>2019-09-28T08:58:09Z</time>
      </trkpt>
      <trkpt lat="44.98853" lon="5.41325">
        <ele>824.95</ele>
        <time>2019-09-28T08:58:26Z</time>
      </trkpt>
      <trkpt lat="44.98862" lon="5.41342">
        <ele>822.55</ele>
        <time>2019-09-28T08:58:46Z</time>
      </trkpt>
      <trkpt lat="44.98866" lon="5.41349">
        <ele>821.1</ele>
        <time>2019-09-28T08:58:59Z</time>
      </trkpt>
      <trkpt lat="44.98875" lon="5.4136">
        <ele>818.22</ele>
        <time>2019-09-28T08:59:17Z</time>
      </trkpt>
      <trkpt lat="44.98884" lon="5.41363">
        <ele>816.78</ele>
        <time>2019-09-28T08:59:32Z</time>
      </trkpt>
      <trkpt lat="44.98896" lon="5.41371">
        <ele>814.85</ele>
        <time>2019-09-28T08:59:49Z</time>
      </trkpt>
      <trkpt lat="44.98902" lon="5.41384">
        <ele>813.41</ele>
        <time>2019-09-28T09:00:05Z</time>
      </trkpt>
      <trkpt lat="44.98908" lon="5.41401">
        <ele>811.49</ele>
        <time>2019-09-28T09:00:22Z</time>
      </trkpt>
      <trkpt lat="44.98916" lon="5.41415">
        <ele>810.05</ele>
        <time>2019-09-28T09:00:39Z</time>
      </trkpt>
      <trkpt lat="44.98921" lon="5.4143">
        <ele>808.61</ele>
        <time>2019-09-28T09:00:55Z</time>
      </trkpt>
      <trkpt lat="44.98919" lon="5.41445">
        <ele>807.16</ele>
        <time>2019-09-28T09:01:11Z</time>
      </trkpt>
      <trkpt lat="44.98918" lon="5.41447">
        <ele>806.68</ele>
        <time>2019-09-28T09:01:14Z</time>
      </trkpt>
      <trkpt lat="44.98907" lon="5.41462">
        <ele>806.2</ele>
        <time>2019-09-28T09:01:30Z</time>
      </trkpt>
      <trkpt lat="44.98897" lon="5.41474">
        <ele>805.72</ele>
        <time>2019-09-28T09:01:46Z</time>
      </trkpt>
      <trkpt lat="44.98892" lon="5.41492">
        <ele>804.28</ele>
        <time>2019-09-28T09:02:01Z</time>
      </trkpt>
      <trkpt lat="44.98889" lon="5.41511">
        <ele>802.84</ele>
        <time>2019-09-28T09:02:15Z</time>
      </trkpt>
      <trkpt lat="44.98888" lon="5.41533">
        <ele>800.92</ele>
        <time>2019-09-28T09:02:31Z</time>
      </trkpt>
      <trkpt lat="44.98882" lon="5.41548">
        <ele>799.47</ele>
        <time>2019-09-28T09:02:47Z</time>
      </trkpt>
      <trkpt lat="44.98877" lon="5.41565">
        <ele>798.03</ele>
        <time>2019-09-28T09:03:04Z</time>
      </trkpt>
      <trkpt lat="44.98883" lon="5.41585">
        <ele>796.59</ele>
        <time>2019-09-28T09:03:20Z</time>
      </trkpt>
      <trkpt lat="44.98889" lon="5.41601">
        <ele>794.19</ele>
        <time>2019-09-28T09:03:37Z</time>
      </trkpt>
      <trkpt lat="44.98893" lon="5.41618">
        <ele>792.74</ele>
        <time>2019-09-28T09:03:53Z</time>
      </trkpt>
      <trkpt lat="44.9889" lon="5.41633">
        <ele>792.26</ele>
        <time>2019-09-28T09:04:08Z</time>
      </trkpt>
      <trkpt lat="44.98886" lon="5.41655">
        <ele>790.82</ele>
        <time>2019-09-28T09:04:29Z</time>
      </trkpt>
      <trkpt lat="44.98887" lon="5.41661">
        <ele>789.38</ele>
        <time>2019-09-28T09:04:46Z</time>
      </trkpt>
      <trkpt lat="44.98888" lon="5.4166">
        <ele>791.3</ele>
        <time>2019-09-28T09:05:10Z</time>
      </trkpt>
      <trkpt lat="44.98888" lon="5.4166">
        <ele>786.98</ele>
        <time>2019-09-28T09:05:12Z</time>
      </trkpt>
      <trkpt lat="44.98888" lon="5.4166">
        <ele>794.19</ele>
        <time>2019-09-28T09:05:13Z</time>
      </trkpt>
      <trkpt lat="44.98888" lon="5.4166">
        <ele>790.34</ele>
        <time>2019-09-28T09:05:14Z</time>
      </trkpt>
      <trkpt lat="44.98886" lon="5.41666">
        <ele>790.34</ele>
        <time>2019-09-28T09:05:34Z</time>
      </trkpt>
      <trkpt lat="44.98887" lon="5.41662">
        <ele>790.34</ele>
        <time>2019-09-28T09:05:54Z</time>
      </trkpt>
      <trkpt lat="44.98887" lon="5.4166">
        <ele>790.34</ele>
        <time>2019-09-28T09:06:23Z</time>
      </trkpt>
      <trkpt lat="44.98887" lon="5.41671">
        <ele>789.86</ele>
        <time>2019-09-28T09:06:43Z</time>
      </trkpt>
      <trkpt lat="44.98889" lon="5.4169">
        <ele>788.9</ele>
        <time>2019-09-28T09:06:59Z</time>
      </trkpt>
      <trkpt lat="44.98894" lon="5.41704">
        <ele>787.46</ele>
        <time>2019-09-28T09:07:14Z</time>
      </trkpt>
      <trkpt lat="44.98899" lon="5.4172">
        <ele>787.46</ele>
        <time>2019-09-28T09:07:32Z</time>
      </trkpt>
      <trkpt lat="44.98897" lon="5.41717">
        <ele>787.46</ele>
        <time>2019-09-28T09:07:51Z</time>
      </trkpt>
      <trkpt lat="44.989" lon="5.41717">
        <ele>786.98</ele>
        <time>2019-09-28T09:08:04Z</time>
      </trkpt>
      <trkpt lat="44.98902" lon="5.4172">
        <ele>789.38</ele>
        <time>2019-09-28T09:08:09Z</time>
      </trkpt>
      <trkpt lat="44.9891" lon="5.41721">
        <ele>786.5</ele>
        <time>2019-09-28T09:08:24Z</time>
      </trkpt>
      <trkpt lat="44.98925" lon="5.41722">
        <ele>784.57</ele>
        <time>2019-09-28T09:08:42Z</time>
      </trkpt>
      <trkpt lat="44.9894" lon="5.41721">
        <ele>782.65</ele>
        <time>2019-09-28T09:09:01Z</time>
      </trkpt>
      <trkpt lat="44.98955" lon="5.41724">
        <ele>779.77</ele>
        <time>2019-09-28T09:09:21Z</time>
      </trkpt>
      <trkpt lat="44.98963" lon="5.41726">
        <ele>778.81</ele>
        <time>2019-09-28T09:09:32Z</time>
      </trkpt>
      <trkpt lat="44.98968" lon="5.41726">
        <ele>777.84</ele>
        <time>2019-09-28T09:09:37Z</time>
      </trkpt>
      <trkpt lat="44.98971" lon="5.41727">
        <ele>772.56</ele>
        <time>2019-09-28T09:09:42Z</time>
      </trkpt>
      <trkpt lat="44.98972" lon="5.41728">
        <ele>782.65</ele>
        <time>2019-09-28T09:09:43Z</time>
      </trkpt>
      <trkpt lat="44.98972" lon="5.41727">
        <ele>777.36</ele>
        <time>2019-09-28T09:09:44Z</time>
      </trkpt>
      <trkpt lat="44.98987" lon="5.41728">
        <ele>774.96</ele>
        <time>2019-09-28T09:10:01Z</time>
      </trkpt>
      <trkpt lat="44.99008" lon="5.41733">
        <ele>772.08</ele>
        <time>2019-09-28T09:10:25Z</time>
      </trkpt>
      <trkpt lat="44.99021" lon="5.41741">
        <ele>770.15</ele>
        <time>2019-09-28T09:10:44Z</time>
      </trkpt>
      <trkpt lat="44.99041" lon="5.41749">
        <ele>768.71</ele>
        <time>2019-09-28T09:11:06Z</time>
      </trkpt>
      <trkpt lat="44.99061" lon="5.41757">
        <ele>766.79</ele>
        <time>2019-09-28T09:11:29Z</time>
      </trkpt>
      <trkpt lat="44.99083" lon="5.4176">
        <ele>763.9</ele>
        <time>2019-09-28T09:11:54Z</time>
      </trkpt>
      <trkpt lat="44.99095" lon="5.41768">
        <ele>762.46</ele>
        <time>2019-09-28T09:12:11Z</time>
      </trkpt>
      <trkpt lat="44.99105" lon="5.41776">
        <ele>760.54</ele>
        <time>2019-09-28T09:12:26Z</time>
      </trkpt>
      <trkpt lat="44.99108" lon="5.41779">
        <ele>760.06</ele>
        <time>2019-09-28T09:12:30Z</time>
      </trkpt>
      <trkpt lat="44.99122" lon="5.41792">
        <ele>758.14</ele>
        <time>2019-09-28T09:12:49Z</time>
      </trkpt>
      <trkpt lat="44.99134" lon="5.41807">
        <ele>755.73</ele>
        <time>2019-09-28T09:13:07Z</time>
      </trkpt>
      <trkpt lat="44.99147" lon="5.41821">
        <ele>753.33</ele>
        <time>2019-09-28T09:13:28Z</time>
      </trkpt>
      <trkpt lat="44.99159" lon="5.41832">
        <ele>752.37</ele>
        <time>2019-09-28T09:13:45Z</time>
      </trkpt>
      <trkpt lat="44.99176" lon="5.41847">
        <ele>750.45</ele>
        <time>2019-09-28T09:14:07Z</time>
      </trkpt>
      <trkpt lat="44.99192" lon="5.41863">
        <ele>749</ele>
        <time>2019-09-28T09:14:27Z</time>
      </trkpt>
      <trkpt lat="44.99202" lon="5.41885">
        <ele>747.08</ele>
        <time>2019-09-28T09:14:47Z</time>
      </trkpt>
      <trkpt lat="44.99217" lon="5.41903">
        <ele>745.16</ele>
        <time>2019-09-28T09:15:08Z</time>
      </trkpt>
      <trkpt lat="44.99221" lon="5.41906">
        <ele>744.68</ele>
        <time>2019-09-28T09:15:13Z</time>
      </trkpt>
      <trkpt lat="44.99238" lon="5.41909">
        <ele>743.72</ele>
        <time>2019-09-28T09:15:32Z</time>
      </trkpt>
      <trkpt lat="44.99239" lon="5.4191">
        <ele>743.24</ele>
        <time>2019-09-28T09:15:34Z</time>
      </trkpt>
      <trkpt lat="44.99258" lon="5.41904">
        <ele>742.28</ele>
        <time>2019-09-28T09:15:53Z</time>
      </trkpt>
      <trkpt lat="44.99274" lon="5.41899">
        <ele>740.83</ele>
        <time>2019-09-28T09:16:11Z</time>
      </trkpt>
      <trkpt lat="44.99289" lon="5.41903">
        <ele>739.39</ele>
        <time>2019-09-28T09:16:29Z</time>
      </trkpt>
      <trkpt lat="44.99305" lon="5.41911">
        <ele>738.43</ele>
        <time>2019-09-28T09:16:47Z</time>
      </trkpt>
      <trkpt lat="44.99317" lon="5.41923">
        <ele>737.47</ele>
        <time>2019-09-28T09:17:03Z</time>
      </trkpt>
      <trkpt lat="44.99332" lon="5.41943">
        <ele>736.03</ele>
        <time>2019-09-28T09:17:21Z</time>
      </trkpt>
      <trkpt lat="44.99337" lon="5.41953">
        <ele>735.55</ele>
        <time>2019-09-28T09:17:29Z</time>
      </trkpt>
      <trkpt lat="44.99349" lon="5.41975">
        <ele>734.1</ele>
        <time>2019-09-28T09:17:49Z</time>
      </trkpt>
      <trkpt lat="44.99358" lon="5.41994">
        <ele>733.62</ele>
        <time>2019-09-28T09:18:07Z</time>
      </trkpt>
      <trkpt lat="44.9937" lon="5.42009">
        <ele>733.14</ele>
        <time>2019-09-28T09:18:23Z</time>
      </trkpt>
      <trkpt lat="44.99389" lon="5.42025">
        <ele>733.14</ele>
        <time>2019-09-28T09:18:45Z</time>
      </trkpt>
      <trkpt lat="44.99389" lon="5.42024">
        <ele>728.82</ele>
        <time>2019-09-28T09:18:47Z</time>
      </trkpt>
      <trkpt lat="44.99389" lon="5.42023">
        <ele>736.51</ele>
        <time>2019-09-28T09:18:48Z</time>
      </trkpt>
      <trkpt lat="44.99389" lon="5.42024">
        <ele>732.66</ele>
        <time>2019-09-28T09:18:49Z</time>
      </trkpt>
      <trkpt lat="44.99389" lon="5.42023">
        <ele>733.62</ele>
        <time>2019-09-28T09:19:19Z</time>
      </trkpt>
      <trkpt lat="44.99391" lon="5.42025">
        <ele>733.14</ele>
        <time>2019-09-28T09:19:36Z</time>
      </trkpt>
      <trkpt lat="44.99393" lon="5.42025">
        <ele>733.14</ele>
        <time>2019-09-28T09:19:51Z</time>
      </trkpt>
      <trkpt lat="44.99392" lon="5.42022">
        <ele>733.14</ele>
        <time>2019-09-28T09:20:13Z</time>
      </trkpt>
      <trkpt lat="44.99392" lon="5.42021">
        <ele>733.14</ele>
        <time>2019-09-28T09:20:38Z</time>
      </trkpt>
      <trkpt lat="44.99396" lon="5.42025">
        <ele>733.14</ele>
        <time>2019-09-28T09:20:56Z</time>
      </trkpt>
      <trkpt lat="44.99399" lon="5.42029">
        <ele>732.66</ele>
        <time>2019-09-28T09:21:16Z</time>
      </trkpt>
      <trkpt lat="44.99404" lon="5.42036">
        <ele>731.7</ele>
        <time>2019-09-28T09:21:33Z</time>
      </trkpt>
      <trkpt lat="44.99413" lon="5.42048">
        <ele>730.26</ele>
        <time>2019-09-28T09:21:49Z</time>
      </trkpt>
      <trkpt lat="44.99423" lon="5.42056">
        <ele>727.86</ele>
        <time>2019-09-28T09:22:02Z</time>
      </trkpt>
      <trkpt lat="44.99429" lon="5.42062">
        <ele>725.93</ele>
        <time>2019-09-28T09:22:16Z</time>
      </trkpt>
      <trkpt lat="44.9944" lon="5.42066">
        <ele>724.01</ele>
        <time>2019-09-28T09:22:30Z</time>
      </trkpt>
      <trkpt lat="44.99449" lon="5.42068">
        <ele>722.09</ele>
        <time>2019-09-28T09:22:45Z</time>
      </trkpt>
      <trkpt lat="44.9946" lon="5.42072">
        <ele>720.65</ele>
        <time>2019-09-28T09:23:01Z</time>
      </trkpt>
      <trkpt lat="44.9947" lon="5.42075">
        <ele>719.2</ele>
        <time>2019-09-28T09:23:18Z</time>
      </trkpt>
      <trkpt lat="44.9948" lon="5.4208">
        <ele>717.28</ele>
        <time>2019-09-28T09:23:35Z</time>
      </trkpt>
      <trkpt lat="44.99486" lon="5.42085">
        <ele>715.84</ele>
        <time>2019-09-28T09:23:50Z</time>
      </trkpt>
      <trkpt lat="44.99492" lon="5.4209">
        <ele>713.92</ele>
        <time>2019-09-28T09:24:08Z</time>
      </trkpt>
      <trkpt lat="44.99496" lon="5.42095">
        <ele>712.95</ele>
        <time>2019-09-28T09:24:21Z</time>
      </trkpt>
      <trkpt lat="44.99505" lon="5.42106">
        <ele>711.51</ele>
        <time>2019-09-28T09:24:38Z</time>
      </trkpt>
      <trkpt lat="44.99516" lon="5.42114">
        <ele>710.55</ele>
        <time>2019-09-28T09:24:54Z</time>
      </trkpt>
      <trkpt lat="44.99528" lon="5.42125">
        <ele>710.55</ele>
        <time>2019-09-28T09:25:11Z</time>
      </trkpt>
      <trkpt lat="44.9953" lon="5.42126">
        <ele>713.92</ele>
        <time>2019-09-28T09:25:16Z</time>
      </trkpt>
      <trkpt lat="44.99532" lon="5.42127">
        <ele>711.03</ele>
        <time>2019-09-28T09:25:32Z</time>
      </trkpt>
      <trkpt lat="44.99532" lon="5.42128">
        <ele>710.07</ele>
        <time>2019-09-28T09:25:34Z</time>
      </trkpt>
      <trkpt lat="44.99532" lon="5.42128">
        <ele>713.92</ele>
        <time>2019-09-28T09:25:35Z</time>
      </trkpt>
      <trkpt lat="44.99531" lon="5.42129">
        <ele>711.99</ele>
        <time>2019-09-28T09:25:36Z</time>
      </trkpt>
      <trkpt lat="44.99532" lon="5.42129">
        <ele>711.03</ele>
        <time>2019-09-28T09:25:38Z</time>
      </trkpt>
      <trkpt lat="44.99525" lon="5.42138">
        <ele>710.07</ele>
        <time>2019-09-28T09:25:58Z</time>
      </trkpt>
      <trkpt lat="44.99522" lon="5.4214">
        <ele>709.59</ele>
        <time>2019-09-28T09:26:13Z</time>
      </trkpt>
      <trkpt lat="44.99513" lon="5.42142">
        <ele>709.59</ele>
        <time>2019-09-28T09:26:28Z</time>
      </trkpt>
      <trkpt lat="44.99512" lon="5.42147">
        <ele>709.59</ele>
        <time>2019-09-28T09:26:34Z</time>
      </trkpt>
      <trkpt lat="44.99514" lon="5.42161">
        <ele>709.59</ele>
        <time>2019-09-28T09:26:49Z</time>
      </trkpt>
      <trkpt lat="44.99515" lon="5.42158">
        <ele>704.78</ele>
        <time>2019-09-28T09:27:07Z</time>
      </trkpt>
      <trkpt lat="44.99515" lon="5.42159">
        <ele>710.55</ele>
        <time>2019-09-28T09:27:08Z</time>
      </trkpt>
      <trkpt lat="44.99515" lon="5.42159">
        <ele>714.4</ele>
        <time>2019-09-28T09:27:10Z</time>
      </trkpt>
      <trkpt lat="44.99514" lon="5.42159">
        <ele>710.07</ele>
        <time>2019-09-28T09:27:11Z</time>
      </trkpt>
      <trkpt lat="44.9951" lon="5.42163">
        <ele>710.07</ele>
        <time>2019-09-28T09:27:28Z</time>
      </trkpt>
      <trkpt lat="44.99508" lon="5.42171">
        <ele>710.07</ele>
        <time>2019-09-28T09:27:42Z</time>
      </trkpt>
      <trkpt lat="44.9951" lon="5.42175">
        <ele>710.07</ele>
        <time>2019-09-28T09:27:59Z</time>
      </trkpt>
      <trkpt lat="44.99514" lon="5.42177">
        <ele>710.07</ele>
        <time>2019-09-28T09:28:13Z</time>
      </trkpt>
      <trkpt lat="44.99518" lon="5.4218">
        <ele>710.07</ele>
        <time>2019-09-28T09:28:23Z</time>
      </trkpt>
      <trkpt lat="44.99526" lon="5.42187">
        <ele>710.07</ele>
        <time>2019-09-28T09:28:38Z</time>
      </trkpt>
      <trkpt lat="44.99535" lon="5.42191">
        <ele>711.51</ele>
        <time>2019-09-28T09:28:53Z</time>
      </trkpt>
      <trkpt lat="44.99536" lon="5.42192">
        <ele>714.88</ele>
        <time>2019-09-28T09:28:57Z</time>
      </trkpt>
      <trkpt lat="44.99536" lon="5.42192">
        <ele>714.88</ele>
        <time>2019-09-28T09:28:58Z</time>
      </trkpt>
      <trkpt lat="44.99537" lon="5.42192">
        <ele>711.99</ele>
        <time>2019-09-28T09:29:00Z</time>
      </trkpt>
      <trkpt lat="44.99536" lon="5.42192">
        <ele>707.67</ele>
        <time>2019-09-28T09:29:12Z</time>
      </trkpt>
      <trkpt lat="44.99536" lon="5.42191">
        <ele>711.99</ele>
        <time>2019-09-28T09:29:15Z</time>
      </trkpt>
      <trkpt lat="44.99536" lon="5.4219">
        <ele>711.99</ele>
        <time>2019-09-28T09:29:36Z</time>
      </trkpt>
      <trkpt lat="44.99537" lon="5.42183">
        <ele>711.99</ele>
        <time>2019-09-28T09:30:03Z</time>
      </trkpt>
      <trkpt lat="44.99541" lon="5.42177">
        <ele>709.59</ele>
        <time>2019-09-28T09:30:17Z</time>
      </trkpt>
      <trkpt lat="44.99543" lon="5.4217">
        <ele>708.15</ele>
        <time>2019-09-28T09:30:32Z</time>
      </trkpt>
      <trkpt lat="44.99545" lon="5.42167">
        <ele>707.19</ele>
        <time>2019-09-28T09:30:45Z</time>
      </trkpt>
      <trkpt lat="44.99548" lon="5.42162">
        <ele>706.23</ele>
        <time>2019-09-28T09:30:59Z</time>
      </trkpt>
      <trkpt lat="44.99552" lon="5.42163">
        <ele>705.75</ele>
        <time>2019-09-28T09:31:13Z</time>
      </trkpt>
      <trkpt lat="44.99557" lon="5.42158">
        <ele>704.78</ele>
        <time>2019-09-28T09:31:28Z</time>
      </trkpt>
      <trkpt lat="44.99575" lon="5.4216">
        <ele>704.3</ele>
        <time>2019-09-28T09:31:49Z</time>
      </trkpt>
      <trkpt lat="44.99591" lon="5.42159">
        <ele>703.34</ele>
        <time>2019-09-28T09:32:07Z</time>
      </trkpt>
      <trkpt lat="44.99607" lon="5.42158">
        <ele>702.38</ele>
        <time>2019-09-28T09:32:24Z</time>
      </trkpt>
      <trkpt lat="44.99617" lon="5.42156">
        <ele>701.9</ele>
        <time>2019-09-28T09:32:37Z</time>
      </trkpt>
      <trkpt lat="44.99631" lon="5.42159">
        <ele>700.94</ele>
        <time>2019-09-28T09:32:51Z</time>
      </trkpt>
      <trkpt lat="44.99643" lon="5.4217">
        <ele>699.98</ele>
        <time>2019-09-28T09:33:06Z</time>
      </trkpt>
      <trkpt lat="44.99653" lon="5.4218">
        <ele>698.53</ele>
        <time>2019-09-28T09:33:21Z</time>
      </trkpt>
      <trkpt lat="44.99659" lon="5.42187">
        <ele>696.61</ele>
        <time>2019-09-28T09:33:34Z</time>
      </trkpt>
      <trkpt lat="44.99671" lon="5.42204">
        <ele>696.61</ele>
        <time>2019-09-28T09:33:52Z</time>
      </trkpt>
      <trkpt lat="44.99684" lon="5.42216">
        <ele>695.17</ele>
        <time>2019-09-28T09:34:08Z</time>
      </trkpt>
      <trkpt lat="44.99703" lon="5.42232">
        <ele>693.73</ele>
        <time>2019-09-28T09:34:23Z</time>
      </trkpt>
      <trkpt lat="44.99716" lon="5.42243">
        <ele>691.33</ele>
        <time>2019-09-28T09:34:41Z</time>
      </trkpt>
      <trkpt lat="44.99727" lon="5.42255">
        <ele>689.88</ele>
        <time>2019-09-28T09:34:58Z</time>
      </trkpt>
      <trkpt lat="44.99737" lon="5.42274">
        <ele>687.48</ele>
        <time>2019-09-28T09:35:17Z</time>
      </trkpt>
      <trkpt lat="44.99743" lon="5.42287">
        <ele>686.04</ele>
        <time>2019-09-28T09:35:35Z</time>
      </trkpt>
      <trkpt lat="44.99749" lon="5.42302">
        <ele>683.63</ele>
        <time>2019-09-28T09:35:52Z</time>
      </trkpt>
      <trkpt lat="44.99755" lon="5.42325">
        <ele>683.15</ele>
        <time>2019-09-28T09:36:10Z</time>
      </trkpt>
      <trkpt lat="44.99767" lon="5.42333">
        <ele>683.15</ele>
        <time>2019-09-28T09:36:26Z</time>
      </trkpt>
      <trkpt lat="44.99778" lon="5.42347">
        <ele>683.15</ele>
        <time>2019-09-28T09:36:44Z</time>
      </trkpt>
      <trkpt lat="44.99778" lon="5.42351">
        <ele>684.12</ele>
        <time>2019-09-28T09:36:58Z</time>
      </trkpt>
      <trkpt lat="44.99776" lon="5.42351">
        <ele>684.12</ele>
        <time>2019-09-28T09:37:29Z</time>
      </trkpt>
      <trkpt lat="44.99776" lon="5.42355">
        <ele>682.67</ele>
        <time>2019-09-28T09:37:51Z</time>
      </trkpt>
      <trkpt lat="44.99777" lon="5.42354">
        <ele>682.67</ele>
        <time>2019-09-28T09:38:27Z</time>
      </trkpt>
      <trkpt lat="44.99778" lon="5.42349">
        <ele>682.67</ele>
        <time>2019-09-28T09:38:54Z</time>
      </trkpt>
      <trkpt lat="44.9978" lon="5.4235">
        <ele>682.67</ele>
        <time>2019-09-28T09:39:18Z</time>
      </trkpt>
      <trkpt lat="44.9978" lon="5.4235">
        <ele>684.12</ele>
        <time>2019-09-28T09:39:35Z</time>
      </trkpt>
      <trkpt lat="44.99778" lon="5.42355">
        <ele>684.12</ele>
        <time>2019-09-28T09:39:59Z</time>
      </trkpt>
      <trkpt lat="44.99773" lon="5.42357">
        <ele>684.12</ele>
        <time>2019-09-28T09:40:23Z</time>
      </trkpt>
      <trkpt lat="44.99773" lon="5.42359">
        <ele>684.6</ele>
        <time>2019-09-28T09:40:49Z</time>
      </trkpt>
      <trkpt lat="44.9978" lon="5.42372">
        <ele>684.6</ele>
        <time>2019-09-28T09:41:09Z</time>
      </trkpt>
      <trkpt lat="44.99786" lon="5.42397">
        <ele>684.6</ele>
        <time>2019-09-28T09:41:30Z</time>
      </trkpt>
      <trkpt lat="44.99791" lon="5.42426">
        <ele>683.15</ele>
        <time>2019-09-28T09:41:52Z</time>
      </trkpt>
      <trkpt lat="44.99793" lon="5.42458">
        <ele>683.15</ele>
        <time>2019-09-28T09:42:15Z</time>
      </trkpt>
      <trkpt lat="44.99795" lon="5.42487">
        <ele>683.15</ele>
        <time>2019-09-28T09:42:35Z</time>
      </trkpt>
      <trkpt lat="44.99799" lon="5.42514">
        <ele>684.6</ele>
        <time>2019-09-28T09:42:55Z</time>
      </trkpt>
      <trkpt lat="44.99801" lon="5.4254">
        <ele>685.08</ele>
        <time>2019-09-28T09:43:13Z</time>
      </trkpt>
      <trkpt lat="44.99801" lon="5.42559">
        <ele>686.04</ele>
        <time>2019-09-28T09:43:31Z</time>
      </trkpt>
      <trkpt lat="44.998" lon="5.42582">
        <ele>687.48</ele>
        <time>2019-09-28T09:43:50Z</time>
      </trkpt>
      <trkpt lat="44.998" lon="5.42599">
        <ele>688.44</ele>
        <time>2019-09-28T09:44:04Z</time>
      </trkpt>
      <trkpt lat="44.99801" lon="5.42618">
        <ele>689.88</ele>
        <time>2019-09-28T09:44:19Z</time>
      </trkpt>
      <trkpt lat="44.99806" lon="5.42632">
        <ele>691.33</ele>
        <time>2019-09-28T09:44:34Z</time>
      </trkpt>
      <trkpt lat="44.99813" lon="5.42642">
        <ele>693.25</ele>
        <time>2019-09-28T09:44:48Z</time>
      </trkpt>
      <trkpt lat="44.99821" lon="5.42647">
        <ele>695.17</ele>
        <time>2019-09-28T09:45:01Z</time>
      </trkpt>
      <trkpt lat="44.99831" lon="5.42652">
        <ele>697.09</ele>
        <time>2019-09-28T09:45:17Z</time>
      </trkpt>
      <trkpt lat="44.99839" lon="5.42659">
        <ele>698.53</ele>
        <time>2019-09-28T09:45:31Z</time>
      </trkpt>
      <trkpt lat="44.9985" lon="5.42663">
        <ele>700.46</ele>
        <time>2019-09-28T09:45:45Z</time>
      </trkpt>
      <trkpt lat="44.99852" lon="5.42666">
        <ele>700.46</ele>
        <time>2019-09-28T09:45:48Z</time>
      </trkpt>
      <trkpt lat="44.99862" lon="5.42675">
        <ele>701.9</ele>
        <time>2019-09-28T09:46:00Z</time>
      </trkpt>
      <trkpt lat="44.99878" lon="5.42693">
        <ele>703.82</ele>
        <time>2019-09-28T09:46:19Z</time>
      </trkpt>
      <trkpt lat="44.99894" lon="5.42709">
        <ele>705.26</ele>
        <time>2019-09-28T09:46:37Z</time>
      </trkpt>
      <trkpt lat="44.99902" lon="5.42726">
        <ele>707.67</ele>
        <time>2019-09-28T09:46:56Z</time>
      </trkpt>
      <trkpt lat="44.99905" lon="5.42745">
        <ele>709.59</ele>
        <time>2019-09-28T09:47:14Z</time>
      </trkpt>
      <trkpt lat="44.99904" lon="5.42764">
        <ele>711.99</ele>
        <time>2019-09-28T09:47:30Z</time>
      </trkpt>
      <trkpt lat="44.99903" lon="5.4278">
        <ele>712.95</ele>
        <time>2019-09-28T09:47:43Z</time>
      </trkpt>
      <trkpt lat="44.99905" lon="5.42805">
        <ele>711.03</ele>
        <time>2019-09-28T09:48:03Z</time>
      </trkpt>
      <trkpt lat="44.99905" lon="5.42806">
        <ele>718.24</ele>
        <time>2019-09-28T09:48:04Z</time>
      </trkpt>
      <trkpt lat="44.99905" lon="5.42806">
        <ele>713.92</ele>
        <time>2019-09-28T09:48:05Z</time>
      </trkpt>
      <trkpt lat="44.99905" lon="5.42808">
        <ele>709.11</ele>
        <time>2019-09-28T09:48:14Z</time>
      </trkpt>
      <trkpt lat="44.99905" lon="5.42809">
        <ele>719.2</ele>
        <time>2019-09-28T09:48:15Z</time>
      </trkpt>
      <trkpt lat="44.99905" lon="5.4281">
        <ele>713.92</ele>
        <time>2019-09-28T09:48:16Z</time>
      </trkpt>
      <trkpt lat="44.99899" lon="5.42831">
        <ele>713.44</ele>
        <time>2019-09-28T09:48:33Z</time>
      </trkpt>
      <trkpt lat="44.99898" lon="5.42845">
        <ele>712.47</ele>
        <time>2019-09-28T09:48:48Z</time>
      </trkpt>
      <trkpt lat="44.99904" lon="5.42852">
        <ele>711.03</ele>
        <time>2019-09-28T09:49:03Z</time>
      </trkpt>
      <trkpt lat="44.99915" lon="5.42854">
        <ele>710.07</ele>
        <time>2019-09-28T09:49:17Z</time>
      </trkpt>
      <trkpt lat="44.99927" lon="5.42861">
        <ele>708.15</ele>
        <time>2019-09-28T09:49:32Z</time>
      </trkpt>
      <trkpt lat="44.99935" lon="5.42878">
        <ele>706.71</ele>
        <time>2019-09-28T09:49:50Z</time>
      </trkpt>
      <trkpt lat="44.99929" lon="5.4289">
        <ele>704.3</ele>
        <time>2019-09-28T09:50:05Z</time>
      </trkpt>
      <trkpt lat="44.99921" lon="5.42898">
        <ele>702.86</ele>
        <time>2019-09-28T09:50:19Z</time>
      </trkpt>
      <trkpt lat="44.99911" lon="5.42905">
        <ele>701.42</ele>
        <time>2019-09-28T09:50:35Z</time>
      </trkpt>
      <trkpt lat="44.99899" lon="5.42918">
        <ele>699.02</ele>
        <time>2019-09-28T09:50:51Z</time>
      </trkpt>
      <trkpt lat="44.99891" lon="5.42925">
        <ele>698.53</ele>
        <time>2019-09-28T09:51:04Z</time>
      </trkpt>
      <trkpt lat="44.99883" lon="5.42932">
        <ele>701.9</ele>
        <time>2019-09-28T09:51:13Z</time>
      </trkpt>
      <trkpt lat="44.99881" lon="5.42933">
        <ele>698.05</ele>
        <time>2019-09-28T09:51:14Z</time>
      </trkpt>
      <trkpt lat="44.99869" lon="5.42946">
        <ele>696.61</ele>
        <time>2019-09-28T09:51:31Z</time>
      </trkpt>
      <trkpt lat="44.99862" lon="5.42954">
        <ele>694.69</ele>
        <time>2019-09-28T09:51:46Z</time>
      </trkpt>
      <trkpt lat="44.99858" lon="5.42968">
        <ele>692.29</ele>
        <time>2019-09-28T09:52:02Z</time>
      </trkpt>
      <trkpt lat="44.99865" lon="5.42981">
        <ele>690.36</ele>
        <time>2019-09-28T09:52:17Z</time>
      </trkpt>
      <trkpt lat="44.99874" lon="5.42988">
        <ele>688.92</ele>
        <time>2019-09-28T09:52:30Z</time>
      </trkpt>
      <trkpt lat="44.99888" lon="5.42999">
        <ele>687.48</ele>
        <time>2019-09-28T09:52:48Z</time>
      </trkpt>
      <trkpt lat="44.99894" lon="5.43011">
        <ele>686.04</ele>
        <time>2019-09-28T09:53:03Z</time>
      </trkpt>
      <trkpt lat="44.99896" lon="5.43026">
        <ele>684.6</ele>
        <time>2019-09-28T09:53:20Z</time>
      </trkpt>
      <trkpt lat="44.99897" lon="5.43039">
        <ele>684.6</ele>
        <time>2019-09-28T09:53:30Z</time>
      </trkpt>
      <trkpt lat="44.99895" lon="5.43061">
        <ele>684.12</ele>
        <time>2019-09-28T09:53:46Z</time>
      </trkpt>
      <trkpt lat="44.99892" lon="5.43084">
        <ele>684.12</ele>
        <time>2019-09-28T09:54:03Z</time>
      </trkpt>
      <trkpt lat="44.99893" lon="5.43109">
        <ele>683.63</ele>
        <time>2019-09-28T09:54:19Z</time>
      </trkpt>
      <trkpt lat="44.99894" lon="5.43129">
        <ele>683.63</ele>
        <time>2019-09-28T09:54:34Z</time>
      </trkpt>
      <trkpt lat="44.99895" lon="5.43152">
        <ele>683.63</ele>
        <time>2019-09-28T09:54:52Z</time>
      </trkpt>
      <trkpt lat="44.99896" lon="5.43172">
        <ele>683.63</ele>
        <time>2019-09-28T09:55:07Z</time>
      </trkpt>
      <trkpt lat="44.999" lon="5.43189">
        <ele>683.15</ele>
        <time>2019-09-28T09:55:23Z</time>
      </trkpt>
      <trkpt lat="44.99904" lon="5.43211">
        <ele>683.15</ele>
        <time>2019-09-28T09:55:39Z</time>
      </trkpt>
      <trkpt lat="44.99909" lon="5.43223">
        <ele>684.12</ele>
        <time>2019-09-28T09:55:47Z</time>
      </trkpt>
      <trkpt lat="44.9991" lon="5.43225">
        <ele>684.12</ele>
        <time>2019-09-28T09:55:48Z</time>
      </trkpt>
      <trkpt lat="44.99922" lon="5.43246">
        <ele>684.12</ele>
        <time>2019-09-28T09:56:04Z</time>
      </trkpt>
      <trkpt lat="44.99931" lon="5.43257">
        <ele>684.6</ele>
        <time>2019-09-28T09:56:18Z</time>
      </trkpt>
      <trkpt lat="44.99943" lon="5.43275">
        <ele>684.6</ele>
        <time>2019-09-28T09:56:33Z</time>
      </trkpt>
      <trkpt lat="44.99951" lon="5.43291">
        <ele>684.6</ele>
        <time>2019-09-28T09:56:48Z</time>
      </trkpt>
      <trkpt lat="44.99957" lon="5.43307">
        <ele>684.6</ele>
        <time>2019-09-28T09:57:02Z</time>
      </trkpt>
      <trkpt lat="44.99965" lon="5.43327">
        <ele>684.6</ele>
        <time>2019-09-28T09:57:16Z</time>
      </trkpt>
      <trkpt lat="44.99974" lon="5.43346">
        <ele>684.6</ele>
        <time>2019-09-28T09:57:31Z</time>
      </trkpt>
      <trkpt lat="44.99979" lon="5.43361">
        <ele>684.6</ele>
        <time>2019-09-28T09:57:42Z</time>
      </trkpt>
      <trkpt lat="44.9999" lon="5.43379">
        <ele>684.6</ele>
        <time>2019-09-28T09:57:58Z</time>
      </trkpt>
      <trkpt lat="44.99996" lon="5.43398">
        <ele>684.6</ele>
        <time>2019-09-28T09:58:12Z</time>
      </trkpt>
      <trkpt lat="45.00003" lon="5.43416">
        <ele>684.6</ele>
        <time>2019-09-28T09:58:27Z</time>
      </trkpt>
      <trkpt lat="45.00008" lon="5.43431">
        <ele>684.6</ele>
        <time>2019-09-28T09:58:39Z</time>
      </trkpt>
      <trkpt lat="45.00016" lon="5.43448">
        <ele>685.08</ele>
        <time>2019-09-28T09:58:53Z</time>
      </trkpt>
      <trkpt lat="45.00023" lon="5.43465">
        <ele>685.56</ele>
        <time>2019-09-28T09:59:08Z</time>
      </trkpt>
      <trkpt lat="45.00032" lon="5.43488">
        <ele>686.04</ele>
        <time>2019-09-28T09:59:26Z</time>
      </trkpt>
      <trkpt lat="45.00043" lon="5.43501">
        <ele>686.04</ele>
        <time>2019-09-28T09:59:43Z</time>
      </trkpt>
      <trkpt lat="45.00048" lon="5.43508">
        <ele>685.08</ele>
        <time>2019-09-28T09:59:51Z</time>
      </trkpt>
      <trkpt lat="45.00061" lon="5.43523">
        <ele>683.63</ele>
        <time>2019-09-28T10:00:10Z</time>
      </trkpt>
      <trkpt lat="45.0007" lon="5.43535">
        <ele>683.15</ele>
        <time>2019-09-28T10:00:25Z</time>
      </trkpt>
      <trkpt lat="45.00079" lon="5.43551">
        <ele>681.71</ele>
        <time>2019-09-28T10:00:40Z</time>
      </trkpt>
      <trkpt lat="45.0008" lon="5.43568">
        <ele>681.71</ele>
        <time>2019-09-28T10:00:52Z</time>
      </trkpt>
      <trkpt lat="45.00089" lon="5.4358">
        <ele>681.71</ele>
        <time>2019-09-28T10:01:07Z</time>
      </trkpt>
      <trkpt lat="45.00101" lon="5.43584">
        <ele>681.71</ele>
        <time>2019-09-28T10:01:21Z</time>
      </trkpt>
      <trkpt lat="45.00114" lon="5.43597">
        <ele>681.71</ele>
        <time>2019-09-28T10:01:36Z</time>
      </trkpt>
      <trkpt lat="45.00121" lon="5.43613">
        <ele>681.71</ele>
        <time>2019-09-28T10:01:52Z</time>
      </trkpt>
      <trkpt lat="45.00128" lon="5.43628">
        <ele>681.71</ele>
        <time>2019-09-28T10:02:10Z</time>
      </trkpt>
      <trkpt lat="45.00127" lon="5.43634">
        <ele>681.71</ele>
        <time>2019-09-28T10:02:28Z</time>
      </trkpt>
      <trkpt lat="45.00126" lon="5.43631">
        <ele>681.71</ele>
        <time>2019-09-28T10:02:46Z</time>
      </trkpt>
      <trkpt lat="45.00126" lon="5.43626">
        <ele>681.71</ele>
        <time>2019-09-28T10:03:03Z</time>
      </trkpt>
      <trkpt lat="45.00128" lon="5.43615">
        <ele>681.71</ele>
        <time>2019-09-28T10:03:19Z</time>
      </trkpt>
      <trkpt lat="45.00133" lon="5.43607">
        <ele>681.71</ele>
        <time>2019-09-28T10:03:31Z</time>
      </trkpt>
      <trkpt lat="45.00136" lon="5.43603">
        <ele>681.71</ele>
        <time>2019-09-28T10:03:50Z</time>
      </trkpt>
      <trkpt lat="45.00138" lon="5.43602">
        <ele>681.71</ele>
        <time>2019-09-28T10:04:09Z</time>
      </trkpt>
      <trkpt lat="45.00136" lon="5.43606">
        <ele>683.15</ele>
        <time>2019-09-28T10:04:30Z</time>
      </trkpt>
      <trkpt lat="45.00134" lon="5.43604">
        <ele>682.67</ele>
        <time>2019-09-28T10:04:46Z</time>
      </trkpt>
      <trkpt lat="45.00133" lon="5.43601">
        <ele>682.67</ele>
        <time>2019-09-28T10:05:06Z</time>
      </trkpt>
      <trkpt lat="45.00136" lon="5.4361">
        <ele>682.67</ele>
        <time>2019-09-28T10:05:35Z</time>
      </trkpt>
      <trkpt lat="45.00136" lon="5.43606">
        <ele>682.67</ele>
        <time>2019-09-28T10:06:03Z</time>
      </trkpt>
      <trkpt lat="45.00135" lon="5.43605">
        <ele>682.67</ele>
        <time>2019-09-28T10:06:28Z</time>
      </trkpt>
      <trkpt lat="45.00135" lon="5.43605">
        <ele>682.67</ele>
        <time>2019-09-28T10:06:58Z</time>
      </trkpt>
      <trkpt lat="45.00135" lon="5.43607">
        <ele>682.67</ele>
        <time>2019-09-28T10:07:26Z</time>
      </trkpt>
      <trkpt lat="45.00136" lon="5.43601">
        <ele>682.67</ele>
        <time>2019-09-28T10:07:55Z</time>
      </trkpt>
      <trkpt lat="45.00137" lon="5.43601">
        <ele>682.19</ele>
        <time>2019-09-28T10:08:26Z</time>
      </trkpt>
      <trkpt lat="45.00137" lon="5.43601">
        <ele>682.19</ele>
        <time>2019-09-28T10:08:57Z</time>
      </trkpt>
      <trkpt lat="45.00137" lon="5.43601">
        <ele>682.19</ele>
        <time>2019-09-28T10:09:28Z</time>
      </trkpt>
      <trkpt lat="45.00137" lon="5.43601">
        <ele>682.19</ele>
        <time>2019-09-28T10:10:08Z</time>
      </trkpt>
      <trkpt lat="45.00137" lon="5.43602">
        <ele>682.19</ele>
        <time>2019-09-28T10:10:40Z</time>
      </trkpt>
      <trkpt lat="45.00135" lon="5.43601">
        <ele>682.19</ele>
        <time>2019-09-28T10:11:09Z</time>
      </trkpt>
      <trkpt lat="45.00136" lon="5.43605">
        <ele>682.19</ele>
        <time>2019-09-28T10:11:42Z</time>
      </trkpt>
      <trkpt lat="45.00136" lon="5.43603">
        <ele>682.19</ele>
        <time>2019-09-28T10:12:15Z</time>
      </trkpt>
      <trkpt lat="45.00137" lon="5.43601">
        <ele>682.19</ele>
        <time>2019-09-28T10:12:45Z</time>
      </trkpt>
      <trkpt lat="45.00137" lon="5.43599">
        <ele>682.19</ele>
        <time>2019-09-28T10:13:02Z</time>
      </trkpt>
      <trkpt lat="45.00137" lon="5.43595">
        <ele>682.19</ele>
        <time>2019-09-28T10:13:33Z</time>
      </trkpt>
      <trkpt lat="45.00131" lon="5.436">
        <ele>681.71</ele>
        <time>2019-09-28T10:14:13Z</time>
      </trkpt>
      <trkpt lat="45.00133" lon="5.43593">
        <ele>681.71</ele>
        <time>2019-09-28T10:14:53Z</time>
      </trkpt>
      <trkpt lat="45.00134" lon="5.43592">
        <ele>681.71</ele>
        <time>2019-09-28T10:15:34Z</time>
      </trkpt>
      <trkpt lat="45.00133" lon="5.43598">
        <ele>681.71</ele>
        <time>2019-09-28T10:16:08Z</time>
      </trkpt>
      <trkpt lat="45.00131" lon="5.43597">
        <ele>681.71</ele>
        <time>2019-09-28T10:16:38Z</time>
      </trkpt>
      <trkpt lat="45.00131" lon="5.43594">
        <ele>681.71</ele>
        <time>2019-09-28T10:17:12Z</time>
      </trkpt>
      <trkpt lat="45.00127" lon="5.436">
        <ele>681.23</ele>
        <time>2019-09-28T10:17:48Z</time>
      </trkpt>
      <trkpt lat="45.00125" lon="5.43595">
        <ele>681.23</ele>
        <time>2019-09-28T10:18:25Z</time>
      </trkpt>
      <trkpt lat="45.00124" lon="5.43593">
        <ele>681.71</ele>
        <time>2019-09-28T10:18:54Z</time>
      </trkpt>
      <trkpt lat="45.00129" lon="5.43593">
        <ele>682.19</ele>
        <time>2019-09-28T10:19:31Z</time>
      </trkpt>
      <trkpt lat="45.00129" lon="5.43597">
        <ele>682.19</ele>
        <time>2019-09-28T10:20:02Z</time>
      </trkpt>
      <trkpt lat="45.00129" lon="5.43597">
        <ele>682.19</ele>
        <time>2019-09-28T10:20:26Z</time>
      </trkpt>
      <trkpt lat="45.00126" lon="5.43595">
        <ele>682.19</ele>
        <time>2019-09-28T10:20:57Z</time>
      </trkpt>
      <trkpt lat="45.00132" lon="5.4359">
        <ele>682.67</ele>
        <time>2019-09-28T10:21:29Z</time>
      </trkpt>
      <trkpt lat="45.00131" lon="5.43594">
        <ele>682.67</ele>
        <time>2019-09-28T10:21:57Z</time>
      </trkpt>
      <trkpt lat="45.00128" lon="5.43597">
        <ele>682.67</ele>
        <time>2019-09-28T10:22:28Z</time>
      </trkpt>
      <trkpt lat="45.00131" lon="5.43596">
        <ele>682.67</ele>
        <time>2019-09-28T10:22:58Z</time>
      </trkpt>
      <trkpt lat="45.00133" lon="5.43594">
        <ele>683.15</ele>
        <time>2019-09-28T10:23:28Z</time>
      </trkpt>
      <trkpt lat="45.00131" lon="5.43594">
        <ele>683.15</ele>
        <time>2019-09-28T10:24:05Z</time>
      </trkpt>
      <trkpt lat="45.00135" lon="5.43593">
        <ele>683.63</ele>
        <time>2019-09-28T10:24:35Z</time>
      </trkpt>
      <trkpt lat="45.00132" lon="5.43592">
        <ele>673.06</ele>
        <time>2019-09-28T10:24:52Z</time>
      </trkpt>
      <trkpt lat="45.00131" lon="5.43591">
        <ele>681.71</ele>
        <time>2019-09-28T10:24:53Z</time>
      </trkpt>
      <trkpt lat="45.00131" lon="5.4359">
        <ele>683.63</ele>
        <time>2019-09-28T10:24:55Z</time>
      </trkpt>
      <trkpt lat="45.0013" lon="5.43587">
        <ele>681.71</ele>
        <time>2019-09-28T10:24:59Z</time>
      </trkpt>
      <trkpt lat="45.0013" lon="5.43587">
        <ele>683.15</ele>
        <time>2019-09-28T10:25:01Z</time>
      </trkpt>
      <trkpt lat="45.0014" lon="5.43585">
        <ele>683.63</ele>
        <time>2019-09-28T10:25:23Z</time>
      </trkpt>
      <trkpt lat="45.00146" lon="5.43557">
        <ele>684.12</ele>
        <time>2019-09-28T10:26:05Z</time>
      </trkpt>
      <trkpt lat="45.00135" lon="5.43583">
        <ele>684.12</ele>
        <time>2019-09-28T10:26:33Z</time>
      </trkpt>
      <trkpt lat="45.0013" lon="5.43602">
        <ele>684.6</ele>
        <time>2019-09-28T10:26:57Z</time>
      </trkpt>
      <trkpt lat="45.00135" lon="5.43596">
        <ele>684.6</ele>
        <time>2019-09-28T10:27:24Z</time>
      </trkpt>
      <trkpt lat="45.00132" lon="5.43598">
        <ele>684.6</ele>
        <time>2019-09-28T10:27:51Z</time>
      </trkpt>
      <trkpt lat="45.00132" lon="5.43587">
        <ele>684.6</ele>
        <time>2019-09-28T10:28:16Z</time>
      </trkpt>
      <trkpt lat="45.00127" lon="5.43592">
        <ele>684.6</ele>
        <time>2019-09-28T10:28:45Z</time>
      </trkpt>
      <trkpt lat="45.00126" lon="5.43605">
        <ele>684.6</ele>
        <time>2019-09-28T10:29:05Z</time>
      </trkpt>
      <trkpt lat="45.0013" lon="5.43608">
        <ele>684.6</ele>
        <time>2019-09-28T10:29:27Z</time>
      </trkpt>
      <trkpt lat="45.00133" lon="5.43619">
        <ele>684.6</ele>
        <time>2019-09-28T10:29:48Z</time>
      </trkpt>
      <trkpt lat="45.0013" lon="5.43611">
        <ele>684.6</ele>
        <time>2019-09-28T10:30:16Z</time>
      </trkpt>
      <trkpt lat="45.00133" lon="5.43602">
        <ele>685.08</ele>
        <time>2019-09-28T10:30:42Z</time>
      </trkpt>
      <trkpt lat="45.00128" lon="5.43606">
        <ele>685.08</ele>
        <time>2019-09-28T10:31:04Z</time>
      </trkpt>
      <trkpt lat="45.00131" lon="5.43606">
        <ele>683.63</ele>
        <time>2019-09-28T10:31:15Z</time>
      </trkpt>
      <trkpt lat="45.00131" lon="5.43597">
        <ele>683.63</ele>
        <time>2019-09-28T10:31:40Z</time>
      </trkpt>
      <trkpt lat="45.00127" lon="5.436">
        <ele>695.17</ele>
        <time>2019-09-28T10:31:59Z</time>
      </trkpt>
      <trkpt lat="45.00129" lon="5.4359">
        <ele>687</ele>
        <time>2019-09-28T10:32:00Z</time>
      </trkpt>
      <trkpt lat="45.00137" lon="5.43591">
        <ele>684.6</ele>
        <time>2019-09-28T10:32:02Z</time>
      </trkpt>
      <trkpt lat="45.00135" lon="5.436">
        <ele>684.6</ele>
        <time>2019-09-28T10:32:37Z</time>
      </trkpt>
      <trkpt lat="45.00135" lon="5.43596">
        <ele>684.6</ele>
        <time>2019-09-28T10:33:15Z</time>
      </trkpt>
      <trkpt lat="45.00132" lon="5.43598">
        <ele>684.6</ele>
        <time>2019-09-28T10:33:52Z</time>
      </trkpt>
      <trkpt lat="45.00134" lon="5.43599">
        <ele>684.6</ele>
        <time>2019-09-28T10:34:22Z</time>
      </trkpt>
      <trkpt lat="45.00133" lon="5.43601">
        <ele>684.6</ele>
        <time>2019-09-28T10:34:57Z</time>
      </trkpt>
      <trkpt lat="45.00136" lon="5.436">
        <ele>673.06</ele>
        <time>2019-09-28T10:35:30Z</time>
      </trkpt>
      <trkpt lat="45.00136" lon="5.436">
        <ele>690.36</ele>
        <time>2019-09-28T10:35:31Z</time>
      </trkpt>
      <trkpt lat="45.00136" lon="5.43599">
        <ele>684.12</ele>
        <time>2019-09-28T10:35:32Z</time>
      </trkpt>
      <trkpt lat="45.00138" lon="5.43603">
        <ele>684.12</ele>
        <time>2019-09-28T10:35:47Z</time>
      </trkpt>
      <trkpt lat="45.00135" lon="5.43603">
        <ele>684.12</ele>
        <time>2019-09-28T10:36:12Z</time>
      </trkpt>
      <trkpt lat="45.00143" lon="5.43603">
        <ele>683.63</ele>
        <time>2019-09-28T10:36:41Z</time>
      </trkpt>
      <trkpt lat="45.00137" lon="5.43601">
        <ele>683.63</ele>
        <time>2019-09-28T10:37:15Z</time>
      </trkpt>
      <trkpt lat="45.00138" lon="5.436">
        <ele>683.15</ele>
        <time>2019-09-28T10:37:45Z</time>
      </trkpt>
      <trkpt lat="45.00142" lon="5.43601">
        <ele>682.67</ele>
        <time>2019-09-28T10:38:13Z</time>
      </trkpt>
      <trkpt lat="45.00144" lon="5.43606">
        <ele>682.67</ele>
        <time>2019-09-28T10:38:38Z</time>
      </trkpt>
      <trkpt lat="45.0014" lon="5.43605">
        <ele>682.19</ele>
        <time>2019-09-28T10:39:06Z</time>
      </trkpt>
      <trkpt lat="45.00146" lon="5.43609">
        <ele>682.19</ele>
        <time>2019-09-28T10:39:32Z</time>
      </trkpt>
      <trkpt lat="45.00143" lon="5.4361">
        <ele>681.71</ele>
        <time>2019-09-28T10:40:00Z</time>
      </trkpt>
      <trkpt lat="45.00137" lon="5.4361">
        <ele>681.71</ele>
        <time>2019-09-28T10:40:28Z</time>
      </trkpt>
      <trkpt lat="45.00136" lon="5.43606">
        <ele>681.71</ele>
        <time>2019-09-28T10:40:55Z</time>
      </trkpt>
      <trkpt lat="45.00144" lon="5.43605">
        <ele>681.71</ele>
        <time>2019-09-28T10:41:21Z</time>
      </trkpt>
      <trkpt lat="45.00138" lon="5.43605">
        <ele>685.56</ele>
        <time>2019-09-28T10:41:32Z</time>
      </trkpt>
      <trkpt lat="45.00139" lon="5.43606">
        <ele>682.67</ele>
        <time>2019-09-28T10:41:33Z</time>
      </trkpt>
      <trkpt lat="45.00135" lon="5.43601">
        <ele>682.67</ele>
        <time>2019-09-28T10:42:02Z</time>
      </trkpt>
      <trkpt lat="45.00135" lon="5.43601">
        <ele>682.19</ele>
        <time>2019-09-28T10:42:37Z</time>
      </trkpt>
      <trkpt lat="45.00136" lon="5.43602">
        <ele>682.19</ele>
        <time>2019-09-28T10:43:06Z</time>
      </trkpt>
      <trkpt lat="45.00136" lon="5.436">
        <ele>682.19</ele>
        <time>2019-09-28T10:43:29Z</time>
      </trkpt>
      <trkpt lat="45.00133" lon="5.43599">
        <ele>682.19</ele>
        <time>2019-09-28T10:44:08Z</time>
      </trkpt>
      <trkpt lat="45.00132" lon="5.43602">
        <ele>682.19</ele>
        <time>2019-09-28T10:44:32Z</time>
      </trkpt>
      <trkpt lat="45.00131" lon="5.436">
        <ele>679.31</ele>
        <time>2019-09-28T10:44:34Z</time>
      </trkpt>
      <trkpt lat="45.0013" lon="5.43599">
        <ele>683.15</ele>
        <time>2019-09-28T10:44:35Z</time>
      </trkpt>
      <trkpt lat="45.00129" lon="5.43598">
        <ele>683.15</ele>
        <time>2019-09-28T10:44:36Z</time>
      </trkpt>
      <trkpt lat="45.00129" lon="5.43597">
        <ele>681.23</ele>
        <time>2019-09-28T10:44:39Z</time>
      </trkpt>
      <trkpt lat="45.00129" lon="5.43597">
        <ele>683.63</ele>
        <time>2019-09-28T10:44:42Z</time>
      </trkpt>
      <trkpt lat="45.00129" lon="5.43597">
        <ele>681.23</ele>
        <time>2019-09-28T10:44:43Z</time>
      </trkpt>
      <trkpt lat="45.0013" lon="5.43598">
        <ele>684.6</ele>
        <time>2019-09-28T10:44:46Z</time>
      </trkpt>
      <trkpt lat="45.0013" lon="5.43598">
        <ele>684.6</ele>
        <time>2019-09-28T10:44:47Z</time>
      </trkpt>
      <trkpt lat="45.0013" lon="5.43598">
        <ele>680.27</ele>
        <time>2019-09-28T10:44:48Z</time>
      </trkpt>
      <trkpt lat="45.0013" lon="5.43598">
        <ele>681.71</ele>
        <time>2019-09-28T10:44:49Z</time>
      </trkpt>
      <trkpt lat="45.0013" lon="5.43599">
        <ele>684.12</ele>
        <time>2019-09-28T10:44:56Z</time>
      </trkpt>
      <trkpt lat="45.0013" lon="5.43599">
        <ele>680.75</ele>
        <time>2019-09-28T10:44:57Z</time>
      </trkpt>
      <trkpt lat="45.0013" lon="5.436">
        <ele>680.27</ele>
        <time>2019-09-28T10:44:59Z</time>
      </trkpt>
      <trkpt lat="45.0013" lon="5.436">
        <ele>682.19</ele>
        <time>2019-09-28T10:45:00Z</time>
      </trkpt>
      <trkpt lat="45.00131" lon="5.43601">
        <ele>682.19</ele>
        <time>2019-09-28T10:45:26Z</time>
      </trkpt>
      <trkpt lat="45.00132" lon="5.43602">
        <ele>686.04</ele>
        <time>2019-09-28T10:45:33Z</time>
      </trkpt>
      <trkpt lat="45.00132" lon="5.43603">
        <ele>680.75</ele>
        <time>2019-09-28T10:45:34Z</time>
      </trkpt>
      <trkpt lat="45.00131" lon="5.43599">
        <ele>681.71</ele>
        <time>2019-09-28T10:45:55Z</time>
      </trkpt>
      <trkpt lat="45.00129" lon="5.43597">
        <ele>681.23</ele>
        <time>2019-09-28T10:46:06Z</time>
      </trkpt>
      <trkpt lat="45.0013" lon="5.43596">
        <ele>684.12</ele>
        <time>2019-09-28T10:46:10Z</time>
      </trkpt>
      <trkpt lat="45.0013" lon="5.43596">
        <ele>679.79</ele>
        <time>2019-09-28T10:46:11Z</time>
      </trkpt>
      <trkpt lat="45.00131" lon="5.43596">
        <ele>683.15</ele>
        <time>2019-09-28T10:46:15Z</time>
      </trkpt>
      <trkpt lat="45.00132" lon="5.43597">
        <ele>681.71</ele>
        <time>2019-09-28T10:46:18Z</time>
      </trkpt>
      <trkpt lat="45.00136" lon="5.43602">
        <ele>681.71</ele>
        <time>2019-09-28T10:46:49Z</time>
      </trkpt>
      <trkpt lat="45.00129" lon="5.43597">
        <ele>682.19</ele>
        <time>2019-09-28T10:47:20Z</time>
      </trkpt>
      <trkpt lat="45.00129" lon="5.43602">
        <ele>682.19</ele>
        <time>2019-09-28T10:47:49Z</time>
      </trkpt>
      <trkpt lat="45.00133" lon="5.43597">
        <ele>682.67</ele>
        <time>2019-09-28T10:48:05Z</time>
      </trkpt>
      <trkpt lat="45.00133" lon="5.43598">
        <ele>680.27</ele>
        <time>2019-09-28T10:48:13Z</time>
      </trkpt>
      <trkpt lat="45.00133" lon="5.43597">
        <ele>683.15</ele>
        <time>2019-09-28T10:48:15Z</time>
      </trkpt>
      <trkpt lat="45.00131" lon="5.436">
        <ele>683.15</ele>
        <time>2019-09-28T10:48:47Z</time>
      </trkpt>
      <trkpt lat="45.00134" lon="5.43598">
        <ele>683.15</ele>
        <time>2019-09-28T10:49:18Z</time>
      </trkpt>
      <trkpt lat="45.00132" lon="5.43596">
        <ele>683.63</ele>
        <time>2019-09-28T10:49:50Z</time>
      </trkpt>
      <trkpt lat="45.00133" lon="5.43597">
        <ele>681.71</ele>
        <time>2019-09-28T10:49:55Z</time>
      </trkpt>
      <trkpt lat="45.00129" lon="5.43596">
        <ele>683.63</ele>
        <time>2019-09-28T10:50:25Z</time>
      </trkpt>
      <trkpt lat="45.00131" lon="5.43596">
        <ele>687</ele>
        <time>2019-09-28T10:50:33Z</time>
      </trkpt>
      <trkpt lat="45.00132" lon="5.43597">
        <ele>683.63</ele>
        <time>2019-09-28T10:50:34Z</time>
      </trkpt>
      <trkpt lat="45.00132" lon="5.43598">
        <ele>683.63</ele>
        <time>2019-09-28T10:51:06Z</time>
      </trkpt>
      <trkpt lat="45.00137" lon="5.43598">
        <ele>683.63</ele>
        <time>2019-09-28T10:51:31Z</time>
      </trkpt>
      <trkpt lat="45.00137" lon="5.43601">
        <ele>683.63</ele>
        <time>2019-09-28T10:52:08Z</time>
      </trkpt>
      <trkpt lat="45.00138" lon="5.436">
        <ele>683.15</ele>
        <time>2019-09-28T10:52:38Z</time>
      </trkpt>
      <trkpt lat="45.00138" lon="5.43602">
        <ele>683.15</ele>
        <time>2019-09-28T10:53:07Z</time>
      </trkpt>
      <trkpt lat="45.00137" lon="5.43607">
        <ele>683.15</ele>
        <time>2019-09-28T10:53:34Z</time>
      </trkpt>
      <trkpt lat="45.00134" lon="5.43609">
        <ele>682.67</ele>
        <time>2019-09-28T10:54:10Z</time>
      </trkpt>
      <trkpt lat="45.00133" lon="5.43609">
        <ele>682.67</ele>
        <time>2019-09-28T10:54:34Z</time>
      </trkpt>
      <trkpt lat="45.00133" lon="5.43611">
        <ele>682.67</ele>
        <time>2019-09-28T10:55:09Z</time>
      </trkpt>
      <trkpt lat="45.00135" lon="5.4361">
        <ele>679.31</ele>
        <time>2019-09-28T10:55:27Z</time>
      </trkpt>
      <trkpt lat="45.00135" lon="5.43609">
        <ele>685.08</ele>
        <time>2019-09-28T10:55:28Z</time>
      </trkpt>
      <trkpt lat="45.00135" lon="5.43609">
        <ele>683.15</ele>
        <time>2019-09-28T10:55:29Z</time>
      </trkpt>
      <trkpt lat="45.00135" lon="5.43607">
        <ele>681.71</ele>
        <time>2019-09-28T10:55:39Z</time>
      </trkpt>
      <trkpt lat="45.00135" lon="5.43608">
        <ele>685.08</ele>
        <time>2019-09-28T10:55:40Z</time>
      </trkpt>
      <trkpt lat="45.00135" lon="5.43608">
        <ele>683.15</ele>
        <time>2019-09-28T10:55:41Z</time>
      </trkpt>
      <trkpt lat="45.00135" lon="5.43604">
        <ele>683.63</ele>
        <time>2019-09-28T10:55:58Z</time>
      </trkpt>
      <trkpt lat="45.00135" lon="5.43602">
        <ele>682.19</ele>
        <time>2019-09-28T10:56:13Z</time>
      </trkpt>
      <trkpt lat="45.00136" lon="5.43603">
        <ele>682.19</ele>
        <time>2019-09-28T10:56:36Z</time>
      </trkpt>
      <trkpt lat="45.00137" lon="5.43609">
        <ele>685.56</ele>
        <time>2019-09-28T10:56:58Z</time>
      </trkpt>
      <trkpt lat="45.00137" lon="5.43609">
        <ele>683.15</ele>
        <time>2019-09-28T10:56:59Z</time>
      </trkpt>
      <trkpt lat="45.00137" lon="5.43607">
        <ele>682.67</ele>
        <time>2019-09-28T10:57:07Z</time>
      </trkpt>
      <trkpt lat="45.00137" lon="5.43605">
        <ele>683.15</ele>
        <time>2019-09-28T10:57:15Z</time>
      </trkpt>
      <trkpt lat="45.00134" lon="5.43602">
        <ele>683.15</ele>
        <time>2019-09-28T10:57:35Z</time>
      </trkpt>
      <trkpt lat="45.00131" lon="5.43601">
        <ele>682.67</ele>
        <time>2019-09-28T10:57:51Z</time>
      </trkpt>
      <trkpt lat="45.00129" lon="5.43604">
        <ele>682.67</ele>
        <time>2019-09-28T10:58:16Z</time>
      </trkpt>
      <trkpt lat="45.00126" lon="5.43615">
        <ele>682.67</ele>
        <time>2019-09-28T10:58:36Z</time>
      </trkpt>
      <trkpt lat="45.00118" lon="5.43607">
        <ele>682.19</ele>
        <time>2019-09-28T10:58:53Z</time>
      </trkpt>
      <trkpt lat="45.0011" lon="5.43598">
        <ele>682.19</ele>
        <time>2019-09-28T10:59:10Z</time>
      </trkpt>
      <trkpt lat="45.0011" lon="5.43602">
        <ele>682.19</ele>
        <time>2019-09-28T10:59:33Z</time>
      </trkpt>
      <trkpt lat="45.00112" lon="5.43602">
        <ele>681.71</ele>
        <time>2019-09-28T10:59:55Z</time>
      </trkpt>
      <trkpt lat="45.0011" lon="5.43591">
        <ele>681.71</ele>
        <time>2019-09-28T11:00:08Z</time>
      </trkpt>
      <trkpt lat="45.00101" lon="5.43582">
        <ele>681.71</ele>
        <time>2019-09-28T11:00:24Z</time>
      </trkpt>
      <trkpt lat="45.00087" lon="5.43576">
        <ele>681.71</ele>
        <time>2019-09-28T11:00:42Z</time>
      </trkpt>
      <trkpt lat="45.00079" lon="5.43565">
        <ele>681.71</ele>
        <time>2019-09-28T11:00:58Z</time>
      </trkpt>
      <trkpt lat="45.00072" lon="5.43561">
        <ele>683.63</ele>
        <time>2019-09-28T11:01:14Z</time>
      </trkpt>
      <trkpt lat="45.00065" lon="5.43571">
        <ele>684.6</ele>
        <time>2019-09-28T11:01:29Z</time>
      </trkpt>
      <trkpt lat="45.00061" lon="5.43581">
        <ele>685.56</ele>
        <time>2019-09-28T11:01:41Z</time>
      </trkpt>
      <trkpt lat="45.00056" lon="5.43589">
        <ele>687</ele>
        <time>2019-09-28T11:01:55Z</time>
      </trkpt>
      <trkpt lat="45.00053" lon="5.43599">
        <ele>688.44</ele>
        <time>2019-09-28T11:02:10Z</time>
      </trkpt>
      <trkpt lat="45.00049" lon="5.43608">
        <ele>689.88</ele>
        <time>2019-09-28T11:02:25Z</time>
      </trkpt>
      <trkpt lat="45.00045" lon="5.43611">
        <ele>691.33</ele>
        <time>2019-09-28T11:02:40Z</time>
      </trkpt>
      <trkpt lat="45.00037" lon="5.43616">
        <ele>693.25</ele>
        <time>2019-09-28T11:02:57Z</time>
      </trkpt>
      <trkpt lat="45.00028" lon="5.43617">
        <ele>694.21</ele>
        <time>2019-09-28T11:03:16Z</time>
      </trkpt>
      <trkpt lat="45.00019" lon="5.43611">
        <ele>696.61</ele>
        <time>2019-09-28T11:03:33Z</time>
      </trkpt>
      <trkpt lat="45.0001" lon="5.43607">
        <ele>698.53</ele>
        <time>2019-09-28T11:03:51Z</time>
      </trkpt>
      <trkpt lat="45.00001" lon="5.43603">
        <ele>699.98</ele>
        <time>2019-09-28T11:04:08Z</time>
      </trkpt>
      <trkpt lat="44.99993" lon="5.43597">
        <ele>701.42</ele>
        <time>2019-09-28T11:04:26Z</time>
      </trkpt>
      <trkpt lat="44.99981" lon="5.43594">
        <ele>703.34</ele>
        <time>2019-09-28T11:04:43Z</time>
      </trkpt>
      <trkpt lat="44.99973" lon="5.4359">
        <ele>704.3</ele>
        <time>2019-09-28T11:04:56Z</time>
      </trkpt>
      <trkpt lat="44.99963" lon="5.43582">
        <ele>706.23</ele>
        <time>2019-09-28T11:05:12Z</time>
      </trkpt>
      <trkpt lat="44.99954" lon="5.43577">
        <ele>708.15</ele>
        <time>2019-09-28T11:05:28Z</time>
      </trkpt>
      <trkpt lat="44.99941" lon="5.4357">
        <ele>709.59</ele>
        <time>2019-09-28T11:05:44Z</time>
      </trkpt>
      <trkpt lat="44.99935" lon="5.43561">
        <ele>712.47</ele>
        <time>2019-09-28T11:06:02Z</time>
      </trkpt>
      <trkpt lat="44.99931" lon="5.4355">
        <ele>714.4</ele>
        <time>2019-09-28T11:06:17Z</time>
      </trkpt>
      <trkpt lat="44.99923" lon="5.43541">
        <ele>715.84</ele>
        <time>2019-09-28T11:06:33Z</time>
      </trkpt>
      <trkpt lat="44.99913" lon="5.43532">
        <ele>715.36</ele>
        <time>2019-09-28T11:06:48Z</time>
      </trkpt>
      <trkpt lat="44.99902" lon="5.43526">
        <ele>715.36</ele>
        <time>2019-09-28T11:07:04Z</time>
      </trkpt>
      <trkpt lat="44.99892" lon="5.43517">
        <ele>715.36</ele>
        <time>2019-09-28T11:07:19Z</time>
      </trkpt>
      <trkpt lat="44.99889" lon="5.43514">
        <ele>715.36</ele>
        <time>2019-09-28T11:07:25Z</time>
      </trkpt>
      <trkpt lat="44.99888" lon="5.43512">
        <ele>715.36</ele>
        <time>2019-09-28T11:07:38Z</time>
      </trkpt>
      <trkpt lat="44.99887" lon="5.43511">
        <ele>718.24</ele>
        <time>2019-09-28T11:07:46Z</time>
      </trkpt>
      <trkpt lat="44.99887" lon="5.43511">
        <ele>715.36</ele>
        <time>2019-09-28T11:07:47Z</time>
      </trkpt>
      <trkpt lat="44.9988" lon="5.43513">
        <ele>715.36</ele>
        <time>2019-09-28T11:08:01Z</time>
      </trkpt>
      <trkpt lat="44.99868" lon="5.4352">
        <ele>715.36</ele>
        <time>2019-09-28T11:08:17Z</time>
      </trkpt>
      <trkpt lat="44.99856" lon="5.43524">
        <ele>714.88</ele>
        <time>2019-09-28T11:08:33Z</time>
      </trkpt>
      <trkpt lat="44.99848" lon="5.43525">
        <ele>716.8</ele>
        <time>2019-09-28T11:08:48Z</time>
      </trkpt>
      <trkpt lat="44.99834" lon="5.43521">
        <ele>716.8</ele>
        <time>2019-09-28T11:09:04Z</time>
      </trkpt>
      <trkpt lat="44.99826" lon="5.43519">
        <ele>716.8</ele>
        <time>2019-09-28T11:09:16Z</time>
      </trkpt>
      <trkpt lat="44.99815" lon="5.43516">
        <ele>717.28</ele>
        <time>2019-09-28T11:09:30Z</time>
      </trkpt>
      <trkpt lat="44.99803" lon="5.43525">
        <ele>717.28</ele>
        <time>2019-09-28T11:09:45Z</time>
      </trkpt>
      <trkpt lat="44.9979" lon="5.43534">
        <ele>717.76</ele>
        <time>2019-09-28T11:09:59Z</time>
      </trkpt>
      <trkpt lat="44.99774" lon="5.43555">
        <ele>718.24</ele>
        <time>2019-09-28T11:10:16Z</time>
      </trkpt>
      <trkpt lat="44.9976" lon="5.43564">
        <ele>719.68</ele>
        <time>2019-09-28T11:10:33Z</time>
      </trkpt>
      <trkpt lat="44.99749" lon="5.43573">
        <ele>719.68</ele>
        <time>2019-09-28T11:10:49Z</time>
      </trkpt>
      <trkpt lat="44.9974" lon="5.43582">
        <ele>720.65</ele>
        <time>2019-09-28T11:11:04Z</time>
      </trkpt>
      <trkpt lat="44.99732" lon="5.43588">
        <ele>721.13</ele>
        <time>2019-09-28T11:11:17Z</time>
      </trkpt>
      <trkpt lat="44.99722" lon="5.43594">
        <ele>722.09</ele>
        <time>2019-09-28T11:11:31Z</time>
      </trkpt>
      <trkpt lat="44.9971" lon="5.43595">
        <ele>722.09</ele>
        <time>2019-09-28T11:11:47Z</time>
      </trkpt>
      <trkpt lat="44.99697" lon="5.43592">
        <ele>722.57</ele>
        <time>2019-09-28T11:12:01Z</time>
      </trkpt>
      <trkpt lat="44.99681" lon="5.43593">
        <ele>723.05</ele>
        <time>2019-09-28T11:12:18Z</time>
      </trkpt>
      <trkpt lat="44.99663" lon="5.43603">
        <ele>723.53</ele>
        <time>2019-09-28T11:12:35Z</time>
      </trkpt>
      <trkpt lat="44.99651" lon="5.43604">
        <ele>724.01</ele>
        <time>2019-09-28T11:12:48Z</time>
      </trkpt>
      <trkpt lat="44.9964" lon="5.43602">
        <ele>724.49</ele>
        <time>2019-09-28T11:13:00Z</time>
      </trkpt>
      <trkpt lat="44.99629" lon="5.43602">
        <ele>725.45</ele>
        <time>2019-09-28T11:13:13Z</time>
      </trkpt>
      <trkpt lat="44.99616" lon="5.43601">
        <ele>725.93</ele>
        <time>2019-09-28T11:13:28Z</time>
      </trkpt>
      <trkpt lat="44.99603" lon="5.43608">
        <ele>726.89</ele>
        <time>2019-09-28T11:13:44Z</time>
      </trkpt>
      <trkpt lat="44.99588" lon="5.43602">
        <ele>727.37</ele>
        <time>2019-09-28T11:13:59Z</time>
      </trkpt>
      <trkpt lat="44.99579" lon="5.43596">
        <ele>727.86</ele>
        <time>2019-09-28T11:14:15Z</time>
      </trkpt>
      <trkpt lat="44.99572" lon="5.43592">
        <ele>727.86</ele>
        <time>2019-09-28T11:14:30Z</time>
      </trkpt>
      <trkpt lat="44.99561" lon="5.43585">
        <ele>728.34</ele>
        <time>2019-09-28T11:14:44Z</time>
      </trkpt>
      <trkpt lat="44.99549" lon="5.43583">
        <ele>728.82</ele>
        <time>2019-09-28T11:14:58Z</time>
      </trkpt>
      <trkpt lat="44.99538" lon="5.4358">
        <ele>730.26</ele>
        <time>2019-09-28T11:15:13Z</time>
      </trkpt>
      <trkpt lat="44.99524" lon="5.4358">
        <ele>730.26</ele>
        <time>2019-09-28T11:15:27Z</time>
      </trkpt>
      <trkpt lat="44.99511" lon="5.43581">
        <ele>730.74</ele>
        <time>2019-09-28T11:15:41Z</time>
      </trkpt>
      <trkpt lat="44.99499" lon="5.4358">
        <ele>731.7</ele>
        <time>2019-09-28T11:15:57Z</time>
      </trkpt>
      <trkpt lat="44.99486" lon="5.43579">
        <ele>733.14</ele>
        <time>2019-09-28T11:16:13Z</time>
      </trkpt>
      <trkpt lat="44.99477" lon="5.43578">
        <ele>733.62</ele>
        <time>2019-09-28T11:16:27Z</time>
      </trkpt>
      <trkpt lat="44.99468" lon="5.43573">
        <ele>735.55</ele>
        <time>2019-09-28T11:16:42Z</time>
      </trkpt>
      <trkpt lat="44.9946" lon="5.43564">
        <ele>736.51</ele>
        <time>2019-09-28T11:16:56Z</time>
      </trkpt>
      <trkpt lat="44.99453" lon="5.43554">
        <ele>736.51</ele>
        <time>2019-09-28T11:17:09Z</time>
      </trkpt>
      <trkpt lat="44.9944" lon="5.43545">
        <ele>737.47</ele>
        <time>2019-09-28T11:17:26Z</time>
      </trkpt>
      <trkpt lat="44.9943" lon="5.43537">
        <ele>738.91</ele>
        <time>2019-09-28T11:17:41Z</time>
      </trkpt>
      <trkpt lat="44.99419" lon="5.43531">
        <ele>739.39</ele>
        <time>2019-09-28T11:17:57Z</time>
      </trkpt>
      <trkpt lat="44.99405" lon="5.43525">
        <ele>740.83</ele>
        <time>2019-09-28T11:18:14Z</time>
      </trkpt>
      <trkpt lat="44.99395" lon="5.43517">
        <ele>741.79</ele>
        <time>2019-09-28T11:18:29Z</time>
      </trkpt>
      <trkpt lat="44.99382" lon="5.43507">
        <ele>742.76</ele>
        <time>2019-09-28T11:18:45Z</time>
      </trkpt>
      <trkpt lat="44.99368" lon="5.43502">
        <ele>744.2</ele>
        <time>2019-09-28T11:19:00Z</time>
      </trkpt>
      <trkpt lat="44.99355" lon="5.43499">
        <ele>745.16</ele>
        <time>2019-09-28T11:19:15Z</time>
      </trkpt>
      <trkpt lat="44.99351" lon="5.43498">
        <ele>741.31</ele>
        <time>2019-09-28T11:19:23Z</time>
      </trkpt>
      <trkpt lat="44.9935" lon="5.43499">
        <ele>748.04</ele>
        <time>2019-09-28T11:19:24Z</time>
      </trkpt>
      <trkpt lat="44.99345" lon="5.43499">
        <ele>744.68</ele>
        <time>2019-09-28T11:19:31Z</time>
      </trkpt>
      <trkpt lat="44.99347" lon="5.43502">
        <ele>744.68</ele>
        <time>2019-09-28T11:19:57Z</time>
      </trkpt>
      <trkpt lat="44.99342" lon="5.43505">
        <ele>747.08</ele>
        <time>2019-09-28T11:20:12Z</time>
      </trkpt>
      <trkpt lat="44.9934" lon="5.43504">
        <ele>745.16</ele>
        <time>2019-09-28T11:20:14Z</time>
      </trkpt>
      <trkpt lat="44.99336" lon="5.43502">
        <ele>745.16</ele>
        <time>2019-09-28T11:20:33Z</time>
      </trkpt>
      <trkpt lat="44.99335" lon="5.43503">
        <ele>745.64</ele>
        <time>2019-09-28T11:20:59Z</time>
      </trkpt>
      <trkpt lat="44.99341" lon="5.43499">
        <ele>745.64</ele>
        <time>2019-09-28T11:21:30Z</time>
      </trkpt>
      <trkpt lat="44.99341" lon="5.43501">
        <ele>746.12</ele>
        <time>2019-09-28T11:22:02Z</time>
      </trkpt>
      <trkpt lat="44.99337" lon="5.43498">
        <ele>746.12</ele>
        <time>2019-09-28T11:22:31Z</time>
      </trkpt>
      <trkpt lat="44.99331" lon="5.43497">
        <ele>746.12</ele>
        <time>2019-09-28T11:23:07Z</time>
      </trkpt>
      <trkpt lat="44.99327" lon="5.43502">
        <ele>748.04</ele>
        <time>2019-09-28T11:23:37Z</time>
      </trkpt>
      <trkpt lat="44.9932" lon="5.43502">
        <ele>749</ele>
        <time>2019-09-28T11:23:53Z</time>
      </trkpt>
      <trkpt lat="44.99313" lon="5.435">
        <ele>750.45</ele>
        <time>2019-09-28T11:24:10Z</time>
      </trkpt>
      <trkpt lat="44.99305" lon="5.43502">
        <ele>751.89</ele>
        <time>2019-09-28T11:24:23Z</time>
      </trkpt>
      <trkpt lat="44.993" lon="5.43505">
        <ele>752.85</ele>
        <time>2019-09-28T11:24:33Z</time>
      </trkpt>
      <trkpt lat="44.99293" lon="5.43506">
        <ele>754.77</ele>
        <time>2019-09-28T11:24:47Z</time>
      </trkpt>
      <trkpt lat="44.99288" lon="5.43503">
        <ele>756.21</ele>
        <time>2019-09-28T11:24:59Z</time>
      </trkpt>
      <trkpt lat="44.99279" lon="5.43497">
        <ele>757.66</ele>
        <time>2019-09-28T11:25:14Z</time>
      </trkpt>
      <trkpt lat="44.99267" lon="5.43495">
        <ele>759.1</ele>
        <time>2019-09-28T11:25:29Z</time>
      </trkpt>
      <trkpt lat="44.99257" lon="5.43491">
        <ele>761.5</ele>
        <time>2019-09-28T11:25:44Z</time>
      </trkpt>
      <trkpt lat="44.99248" lon="5.43485">
        <ele>762.94</ele>
        <time>2019-09-28T11:25:57Z</time>
      </trkpt>
      <trkpt lat="44.99242" lon="5.43481">
        <ele>764.39</ele>
        <time>2019-09-28T11:26:11Z</time>
      </trkpt>
      <trkpt lat="44.99233" lon="5.43477">
        <ele>765.35</ele>
        <time>2019-09-28T11:26:25Z</time>
      </trkpt>
      <trkpt lat="44.99225" lon="5.43474">
        <ele>767.27</ele>
        <time>2019-09-28T11:26:37Z</time>
      </trkpt>
      <trkpt lat="44.99216" lon="5.43471">
        <ele>767.75</ele>
        <time>2019-09-28T11:26:48Z</time>
      </trkpt>
      <trkpt lat="44.9921" lon="5.43468">
        <ele>769.19</ele>
        <time>2019-09-28T11:27:01Z</time>
      </trkpt>
      <trkpt lat="44.99202" lon="5.43466">
        <ele>770.63</ele>
        <time>2019-09-28T11:27:13Z</time>
      </trkpt>
      <trkpt lat="44.99193" lon="5.43467">
        <ele>772.56</ele>
        <time>2019-09-28T11:27:28Z</time>
      </trkpt>
      <trkpt lat="44.99184" lon="5.4346">
        <ele>774.96</ele>
        <time>2019-09-28T11:27:44Z</time>
      </trkpt>
      <trkpt lat="44.99172" lon="5.43455">
        <ele>776.4</ele>
        <time>2019-09-28T11:28:01Z</time>
      </trkpt>
      <trkpt lat="44.99165" lon="5.43455">
        <ele>777.84</ele>
        <time>2019-09-28T11:28:14Z</time>
      </trkpt>
      <trkpt lat="44.99156" lon="5.43456">
        <ele>779.29</ele>
        <time>2019-09-28T11:28:26Z</time>
      </trkpt>
      <trkpt lat="44.99148" lon="5.43458">
        <ele>780.25</ele>
        <time>2019-09-28T11:28:40Z</time>
      </trkpt>
      <trkpt lat="44.99138" lon="5.43457">
        <ele>782.17</ele>
        <time>2019-09-28T11:28:53Z</time>
      </trkpt>
      <trkpt lat="44.99129" lon="5.43458">
        <ele>783.13</ele>
        <time>2019-09-28T11:29:06Z</time>
      </trkpt>
      <trkpt lat="44.99119" lon="5.43458">
        <ele>786.02</ele>
        <time>2019-09-28T11:29:24Z</time>
      </trkpt>
      <trkpt lat="44.99107" lon="5.4346">
        <ele>787.46</ele>
        <time>2019-09-28T11:29:38Z</time>
      </trkpt>
      <trkpt lat="44.99099" lon="5.43461">
        <ele>788.9</ele>
        <time>2019-09-28T11:29:51Z</time>
      </trkpt>
      <trkpt lat="44.99091" lon="5.43459">
        <ele>790.82</ele>
        <time>2019-09-28T11:30:06Z</time>
      </trkpt>
      <trkpt lat="44.99081" lon="5.4346">
        <ele>792.26</ele>
        <time>2019-09-28T11:30:22Z</time>
      </trkpt>
      <trkpt lat="44.99072" lon="5.43462">
        <ele>793.71</ele>
        <time>2019-09-28T11:30:36Z</time>
      </trkpt>
      <trkpt lat="44.9906" lon="5.43464">
        <ele>794.67</ele>
        <time>2019-09-28T11:30:52Z</time>
      </trkpt>
      <trkpt lat="44.99048" lon="5.43469">
        <ele>796.11</ele>
        <time>2019-09-28T11:31:10Z</time>
      </trkpt>
      <trkpt lat="44.99036" lon="5.43472">
        <ele>796.59</ele>
        <time>2019-09-28T11:31:28Z</time>
      </trkpt>
      <trkpt lat="44.99029" lon="5.4347">
        <ele>796.11</ele>
        <time>2019-09-28T11:31:56Z</time>
      </trkpt>
      <trkpt lat="44.9903" lon="5.43473">
        <ele>797.07</ele>
        <time>2019-09-28T11:32:15Z</time>
      </trkpt>
      <trkpt lat="44.9903" lon="5.43473">
        <ele>791.3</ele>
        <time>2019-09-28T11:32:18Z</time>
      </trkpt>
      <trkpt lat="44.9903" lon="5.43473">
        <ele>802.36</ele>
        <time>2019-09-28T11:32:19Z</time>
      </trkpt>
      <trkpt lat="44.9903" lon="5.43473">
        <ele>796.59</ele>
        <time>2019-09-28T11:32:20Z</time>
      </trkpt>
      <trkpt lat="44.99034" lon="5.43467">
        <ele>796.59</ele>
        <time>2019-09-28T11:32:43Z</time>
      </trkpt>
      <trkpt lat="44.99034" lon="5.43466">
        <ele>796.59</ele>
        <time>2019-09-28T11:33:06Z</time>
      </trkpt>
      <trkpt lat="44.99035" lon="5.43469">
        <ele>796.59</ele>
        <time>2019-09-28T11:33:23Z</time>
      </trkpt>
      <trkpt lat="44.99034" lon="5.43468">
        <ele>797.55</ele>
        <time>2019-09-28T11:33:38Z</time>
      </trkpt>
      <trkpt lat="44.99034" lon="5.43467">
        <ele>797.55</ele>
        <time>2019-09-28T11:33:59Z</time>
      </trkpt>
      <trkpt lat="44.99025" lon="5.43466">
        <ele>797.55</ele>
        <time>2019-09-28T11:34:16Z</time>
      </trkpt>
      <trkpt lat="44.9901" lon="5.43468">
        <ele>797.55</ele>
        <time>2019-09-28T11:34:33Z</time>
      </trkpt>
      <trkpt lat="44.98996" lon="5.43469">
        <ele>798.51</ele>
        <time>2019-09-28T11:34:48Z</time>
      </trkpt>
      <trkpt lat="44.98983" lon="5.43467">
        <ele>799.95</ele>
        <time>2019-09-28T11:35:04Z</time>
      </trkpt>
      <trkpt lat="44.98967" lon="5.4346">
        <ele>801.4</ele>
        <time>2019-09-28T11:35:21Z</time>
      </trkpt>
      <trkpt lat="44.98957" lon="5.43452">
        <ele>802.84</ele>
        <time>2019-09-28T11:35:36Z</time>
      </trkpt>
      <trkpt lat="44.98947" lon="5.43444">
        <ele>804.28</ele>
        <time>2019-09-28T11:35:52Z</time>
      </trkpt>
      <trkpt lat="44.98932" lon="5.43441">
        <ele>804.76</ele>
        <time>2019-09-28T11:36:06Z</time>
      </trkpt>
      <trkpt lat="44.98917" lon="5.43444">
        <ele>805.72</ele>
        <time>2019-09-28T11:36:20Z</time>
      </trkpt>
      <trkpt lat="44.98904" lon="5.43446">
        <ele>807.16</ele>
        <time>2019-09-28T11:36:35Z</time>
      </trkpt>
      <trkpt lat="44.98888" lon="5.43442">
        <ele>808.61</ele>
        <time>2019-09-28T11:36:52Z</time>
      </trkpt>
      <trkpt lat="44.98877" lon="5.43438">
        <ele>809.09</ele>
        <time>2019-09-28T11:37:05Z</time>
      </trkpt>
      <trkpt lat="44.98863" lon="5.43439">
        <ele>810.53</ele>
        <time>2019-09-28T11:37:20Z</time>
      </trkpt>
      <trkpt lat="44.98851" lon="5.43435">
        <ele>811.01</ele>
        <time>2019-09-28T11:37:36Z</time>
      </trkpt>
      <trkpt lat="44.98836" lon="5.43432">
        <ele>812.45</ele>
        <time>2019-09-28T11:37:54Z</time>
      </trkpt>
      <trkpt lat="44.98822" lon="5.4343">
        <ele>812.93</ele>
        <time>2019-09-28T11:38:09Z</time>
      </trkpt>
      <trkpt lat="44.98812" lon="5.43429">
        <ele>813.41</ele>
        <time>2019-09-28T11:38:23Z</time>
      </trkpt>
      <trkpt lat="44.98802" lon="5.43424">
        <ele>814.37</ele>
        <time>2019-09-28T11:38:36Z</time>
      </trkpt>
      <trkpt lat="44.98789" lon="5.43418">
        <ele>815.34</ele>
        <time>2019-09-28T11:38:51Z</time>
      </trkpt>
      <trkpt lat="44.9878" lon="5.43414">
        <ele>815.82</ele>
        <time>2019-09-28T11:38:59Z</time>
      </trkpt>
      <trkpt lat="44.98769" lon="5.43411">
        <ele>816.78</ele>
        <time>2019-09-28T11:39:12Z</time>
      </trkpt>
      <trkpt lat="44.98756" lon="5.43407">
        <ele>817.74</ele>
        <time>2019-09-28T11:39:27Z</time>
      </trkpt>
      <trkpt lat="44.98746" lon="5.43397">
        <ele>818.7</ele>
        <time>2019-09-28T11:39:40Z</time>
      </trkpt>
      <trkpt lat="44.98735" lon="5.43395">
        <ele>819.66</ele>
        <time>2019-09-28T11:39:53Z</time>
      </trkpt>
      <trkpt lat="44.9872" lon="5.43392">
        <ele>821.1</ele>
        <time>2019-09-28T11:40:08Z</time>
      </trkpt>
      <trkpt lat="44.98704" lon="5.43401">
        <ele>821.58</ele>
        <time>2019-09-28T11:40:23Z</time>
      </trkpt>
      <trkpt lat="44.98691" lon="5.43405">
        <ele>823.03</ele>
        <time>2019-09-28T11:40:39Z</time>
      </trkpt>
      <trkpt lat="44.98694" lon="5.43406">
        <ele>823.51</ele>
        <time>2019-09-28T11:40:56Z</time>
      </trkpt>
      <trkpt lat="44.98692" lon="5.43409">
        <ele>823.51</ele>
        <time>2019-09-28T11:41:23Z</time>
      </trkpt>
      <trkpt lat="44.98694" lon="5.43405">
        <ele>823.51</ele>
        <time>2019-09-28T11:41:46Z</time>
      </trkpt>
      <trkpt lat="44.98693" lon="5.43404">
        <ele>823.51</ele>
        <time>2019-09-28T11:42:05Z</time>
      </trkpt>
      <trkpt lat="44.98694" lon="5.43403">
        <ele>827.35</ele>
        <time>2019-09-28T11:42:22Z</time>
      </trkpt>
      <trkpt lat="44.98694" lon="5.43403">
        <ele>823.99</ele>
        <time>2019-09-28T11:42:23Z</time>
      </trkpt>
      <trkpt lat="44.98693" lon="5.43407">
        <ele>823.99</ele>
        <time>2019-09-28T11:42:42Z</time>
      </trkpt>
      <trkpt lat="44.98693" lon="5.43407">
        <ele>820.62</ele>
        <time>2019-09-28T11:42:44Z</time>
      </trkpt>
      <trkpt lat="44.98693" lon="5.43408">
        <ele>826.39</ele>
        <time>2019-09-28T11:42:45Z</time>
      </trkpt>
      <trkpt lat="44.98696" lon="5.43414">
        <ele>820.62</ele>
        <time>2019-09-28T11:43:12Z</time>
      </trkpt>
      <trkpt lat="44.98696" lon="5.43414">
        <ele>828.31</ele>
        <time>2019-09-28T11:43:13Z</time>
      </trkpt>
      <trkpt lat="44.98695" lon="5.43413">
        <ele>824.47</ele>
        <time>2019-09-28T11:43:14Z</time>
      </trkpt>
      <trkpt lat="44.98695" lon="5.43409">
        <ele>824.47</ele>
        <time>2019-09-28T11:43:33Z</time>
      </trkpt>
      <trkpt lat="44.98689" lon="5.43406">
        <ele>824.47</ele>
        <time>2019-09-28T11:44:04Z</time>
      </trkpt>
      <trkpt lat="44.98686" lon="5.43402">
        <ele>824.47</ele>
        <time>2019-09-28T11:44:34Z</time>
      </trkpt>
      <trkpt lat="44.98677" lon="5.43402">
        <ele>824.47</ele>
        <time>2019-09-28T11:44:54Z</time>
      </trkpt>
      <trkpt lat="44.98666" lon="5.43406">
        <ele>825.91</ele>
        <time>2019-09-28T11:45:09Z</time>
      </trkpt>
      <trkpt lat="44.98655" lon="5.43407">
        <ele>826.87</ele>
        <time>2019-09-28T11:45:24Z</time>
      </trkpt>
      <trkpt lat="44.98648" lon="5.43403">
        <ele>827.83</ele>
        <time>2019-09-28T11:45:38Z</time>
      </trkpt>
      <trkpt lat="44.98638" lon="5.43404">
        <ele>829.27</ele>
        <time>2019-09-28T11:45:54Z</time>
      </trkpt>
      <trkpt lat="44.98628" lon="5.43401">
        <ele>830.72</ele>
        <time>2019-09-28T11:46:10Z</time>
      </trkpt>
      <trkpt lat="44.98618" lon="5.43397">
        <ele>832.64</ele>
        <time>2019-09-28T11:46:25Z</time>
      </trkpt>
      <trkpt lat="44.98608" lon="5.43397">
        <ele>833.6</ele>
        <time>2019-09-28T11:46:39Z</time>
      </trkpt>
      <trkpt lat="44.98596" lon="5.43394">
        <ele>835.04</ele>
        <time>2019-09-28T11:46:55Z</time>
      </trkpt>
      <trkpt lat="44.98584" lon="5.43394">
        <ele>836.48</ele>
        <time>2019-09-28T11:47:11Z</time>
      </trkpt>
      <trkpt lat="44.98575" lon="5.43394">
        <ele>837.93</ele>
        <time>2019-09-28T11:47:25Z</time>
      </trkpt>
      <trkpt lat="44.98565" lon="5.43391">
        <ele>839.37</ele>
        <time>2019-09-28T11:47:39Z</time>
      </trkpt>
      <trkpt lat="44.9855" lon="5.4339">
        <ele>840.33</ele>
        <time>2019-09-28T11:47:55Z</time>
      </trkpt>
      <trkpt lat="44.98539" lon="5.43391">
        <ele>841.77</ele>
        <time>2019-09-28T11:48:09Z</time>
      </trkpt>
      <trkpt lat="44.98529" lon="5.43388">
        <ele>842.25</ele>
        <time>2019-09-28T11:48:23Z</time>
      </trkpt>
      <trkpt lat="44.98524" lon="5.43387">
        <ele>842.25</ele>
        <time>2019-09-28T11:48:40Z</time>
      </trkpt>
      <trkpt lat="44.9852" lon="5.43386">
        <ele>842.25</ele>
        <time>2019-09-28T11:48:59Z</time>
      </trkpt>
      <trkpt lat="44.98518" lon="5.43388">
        <ele>842.25</ele>
        <time>2019-09-28T11:49:14Z</time>
      </trkpt>
      <trkpt lat="44.98517" lon="5.43379">
        <ele>842.25</ele>
        <time>2019-09-28T11:49:39Z</time>
      </trkpt>
      <trkpt lat="44.98511" lon="5.43377">
        <ele>842.25</ele>
        <time>2019-09-28T11:50:06Z</time>
      </trkpt>
      <trkpt lat="44.98507" lon="5.43384">
        <ele>842.25</ele>
        <time>2019-09-28T11:50:23Z</time>
      </trkpt>
      <trkpt lat="44.98504" lon="5.43387">
        <ele>842.25</ele>
        <time>2019-09-28T11:50:49Z</time>
      </trkpt>
      <trkpt lat="44.98501" lon="5.43393">
        <ele>842.25</ele>
        <time>2019-09-28T11:51:19Z</time>
      </trkpt>
      <trkpt lat="44.98497" lon="5.43398">
        <ele>842.73</ele>
        <time>2019-09-28T11:51:50Z</time>
      </trkpt>
      <trkpt lat="44.98496" lon="5.43391">
        <ele>843.21</ele>
        <time>2019-09-28T11:52:12Z</time>
      </trkpt>
      <trkpt lat="44.98486" lon="5.43378">
        <ele>843.69</ele>
        <time>2019-09-28T11:52:32Z</time>
      </trkpt>
      <trkpt lat="44.98474" lon="5.43366">
        <ele>843.21</ele>
        <time>2019-09-28T11:52:51Z</time>
      </trkpt>
      <trkpt lat="44.98462" lon="5.43357">
        <ele>842.73</ele>
        <time>2019-09-28T11:53:10Z</time>
      </trkpt>
      <trkpt lat="44.98451" lon="5.43356">
        <ele>842.73</ele>
        <time>2019-09-28T11:53:25Z</time>
      </trkpt>
      <trkpt lat="44.98434" lon="5.43362">
        <ele>842.73</ele>
        <time>2019-09-28T11:53:44Z</time>
      </trkpt>
      <trkpt lat="44.98419" lon="5.43367">
        <ele>842.25</ele>
        <time>2019-09-28T11:54:00Z</time>
      </trkpt>
      <trkpt lat="44.98407" lon="5.43366">
        <ele>841.77</ele>
        <time>2019-09-28T11:54:11Z</time>
      </trkpt>
      <trkpt lat="44.98386" lon="5.43366">
        <ele>841.77</ele>
        <time>2019-09-28T11:54:30Z</time>
      </trkpt>
      <trkpt lat="44.98371" lon="5.43368">
        <ele>841.77</ele>
        <time>2019-09-28T11:54:45Z</time>
      </trkpt>
      <trkpt lat="44.98355" lon="5.43367">
        <ele>841.77</ele>
        <time>2019-09-28T11:55:03Z</time>
      </trkpt>
      <trkpt lat="44.98338" lon="5.43369">
        <ele>841.77</ele>
        <time>2019-09-28T11:55:21Z</time>
      </trkpt>
      <trkpt lat="44.9832" lon="5.43371">
        <ele>841.77</ele>
        <time>2019-09-28T11:55:38Z</time>
      </trkpt>
      <trkpt lat="44.98315" lon="5.43368">
        <ele>841.77</ele>
        <time>2019-09-28T11:55:43Z</time>
      </trkpt>
      <trkpt lat="44.98294" lon="5.43362">
        <ele>843.21</ele>
        <time>2019-09-28T11:56:00Z</time>
      </trkpt>
      <trkpt lat="44.98275" lon="5.43369">
        <ele>843.21</ele>
        <time>2019-09-28T11:56:15Z</time>
      </trkpt>
      <trkpt lat="44.98258" lon="5.43363">
        <ele>843.21</ele>
        <time>2019-09-28T11:56:33Z</time>
      </trkpt>
      <trkpt lat="44.98246" lon="5.43363">
        <ele>842.25</ele>
        <time>2019-09-28T11:56:45Z</time>
      </trkpt>
      <trkpt lat="44.98231" lon="5.43356">
        <ele>841.77</ele>
        <time>2019-09-28T11:57:03Z</time>
      </trkpt>
      <trkpt lat="44.98217" lon="5.43353">
        <ele>840.81</ele>
        <time>2019-09-28T11:57:20Z</time>
      </trkpt>
      <trkpt lat="44.98207" lon="5.43353">
        <ele>840.33</ele>
        <time>2019-09-28T11:57:34Z</time>
      </trkpt>
      <trkpt lat="44.98192" lon="5.43348">
        <ele>839.85</ele>
        <time>2019-09-28T11:57:48Z</time>
      </trkpt>
      <trkpt lat="44.98177" lon="5.43344">
        <ele>839.85</ele>
        <time>2019-09-28T11:58:04Z</time>
      </trkpt>
      <trkpt lat="44.98159" lon="5.43338">
        <ele>839.85</ele>
        <time>2019-09-28T11:58:20Z</time>
      </trkpt>
      <trkpt lat="44.98141" lon="5.43336">
        <ele>840.81</ele>
        <time>2019-09-28T11:58:38Z</time>
      </trkpt>
      <trkpt lat="44.98127" lon="5.43333">
        <ele>841.29</ele>
        <time>2019-09-28T11:58:53Z</time>
      </trkpt>
      <trkpt lat="44.98114" lon="5.43332">
        <ele>841.77</ele>
        <time>2019-09-28T11:59:07Z</time>
      </trkpt>
      <trkpt lat="44.981" lon="5.43328">
        <ele>842.73</ele>
        <time>2019-09-28T11:59:21Z</time>
      </trkpt>
      <trkpt lat="44.98089" lon="5.43322">
        <ele>844.66</ele>
        <time>2019-09-28T11:59:37Z</time>
      </trkpt>
      <trkpt lat="44.98076" lon="5.43317">
        <ele>845.62</ele>
        <time>2019-09-28T11:59:54Z</time>
      </trkpt>
      <trkpt lat="44.98066" lon="5.4331">
        <ele>847.54</ele>
        <time>2019-09-28T12:00:10Z</time>
      </trkpt>
      <trkpt lat="44.98055" lon="5.433">
        <ele>848.98</ele>
        <time>2019-09-28T12:00:26Z</time>
      </trkpt>
      <trkpt lat="44.98047" lon="5.43296">
        <ele>850.42</ele>
        <time>2019-09-28T12:00:37Z</time>
      </trkpt>
      <trkpt lat="44.98034" lon="5.43293">
        <ele>850.9</ele>
        <time>2019-09-28T12:00:53Z</time>
      </trkpt>
      <trkpt lat="44.98029" lon="5.43294">
        <ele>850.9</ele>
        <time>2019-09-28T12:01:07Z</time>
      </trkpt>
      <trkpt lat="44.9803" lon="5.43296">
        <ele>851.38</ele>
        <time>2019-09-28T12:01:35Z</time>
      </trkpt>
      <trkpt lat="44.98022" lon="5.43298">
        <ele>851.38</ele>
        <time>2019-09-28T12:01:52Z</time>
      </trkpt>
      <trkpt lat="44.9802" lon="5.433">
        <ele>851.38</ele>
        <time>2019-09-28T12:02:10Z</time>
      </trkpt>
      <trkpt lat="44.98019" lon="5.43297">
        <ele>851.38</ele>
        <time>2019-09-28T12:02:41Z</time>
      </trkpt>
      <trkpt lat="44.98021" lon="5.43294">
        <ele>850.9</ele>
        <time>2019-09-28T12:03:04Z</time>
      </trkpt>
      <trkpt lat="44.98021" lon="5.43294">
        <ele>852.83</ele>
        <time>2019-09-28T12:03:22Z</time>
      </trkpt>
      <trkpt lat="44.98017" lon="5.43297">
        <ele>852.83</ele>
        <time>2019-09-28T12:03:37Z</time>
      </trkpt>
      <trkpt lat="44.98017" lon="5.43302">
        <ele>852.83</ele>
        <time>2019-09-28T12:04:00Z</time>
      </trkpt>
      <trkpt lat="44.98007" lon="5.43299">
        <ele>852.83</ele>
        <time>2019-09-28T12:04:16Z</time>
      </trkpt>
      <trkpt lat="44.97993" lon="5.43293">
        <ele>852.83</ele>
        <time>2019-09-28T12:04:33Z</time>
      </trkpt>
      <trkpt lat="44.97981" lon="5.43288">
        <ele>854.27</ele>
        <time>2019-09-28T12:04:49Z</time>
      </trkpt>
      <trkpt lat="44.97968" lon="5.43285">
        <ele>854.75</ele>
        <time>2019-09-28T12:05:05Z</time>
      </trkpt>
      <trkpt lat="44.97954" lon="5.43283">
        <ele>855.71</ele>
        <time>2019-09-28T12:05:19Z</time>
      </trkpt>
      <trkpt lat="44.97939" lon="5.43276">
        <ele>856.67</ele>
        <time>2019-09-28T12:05:36Z</time>
      </trkpt>
      <trkpt lat="44.97925" lon="5.4327">
        <ele>856.67</ele>
        <time>2019-09-28T12:05:51Z</time>
      </trkpt>
      <trkpt lat="44.97907" lon="5.43265">
        <ele>857.63</ele>
        <time>2019-09-28T12:06:08Z</time>
      </trkpt>
      <trkpt lat="44.97894" lon="5.43263">
        <ele>858.59</ele>
        <time>2019-09-28T12:06:24Z</time>
      </trkpt>
      <trkpt lat="44.97875" lon="5.43255">
        <ele>859.08</ele>
        <time>2019-09-28T12:06:41Z</time>
      </trkpt>
      <trkpt lat="44.9786" lon="5.4325">
        <ele>859.56</ele>
        <time>2019-09-28T12:06:58Z</time>
      </trkpt>
      <trkpt lat="44.97849" lon="5.43247">
        <ele>860.04</ele>
        <time>2019-09-28T12:07:14Z</time>
      </trkpt>
      <trkpt lat="44.97835" lon="5.43243">
        <ele>861.96</ele>
        <time>2019-09-28T12:07:31Z</time>
      </trkpt>
      <trkpt lat="44.97818" lon="5.43241">
        <ele>861.96</ele>
        <time>2019-09-28T12:07:46Z</time>
      </trkpt>
      <trkpt lat="44.97804" lon="5.4324">
        <ele>861.96</ele>
        <time>2019-09-28T12:07:59Z</time>
      </trkpt>
      <trkpt lat="44.97786" lon="5.4323">
        <ele>861.96</ele>
        <time>2019-09-28T12:08:16Z</time>
      </trkpt>
      <trkpt lat="44.97772" lon="5.43227">
        <ele>861.96</ele>
        <time>2019-09-28T12:08:31Z</time>
      </trkpt>
      <trkpt lat="44.97763" lon="5.43224">
        <ele>862.92</ele>
        <time>2019-09-28T12:08:45Z</time>
      </trkpt>
      <trkpt lat="44.97765" lon="5.43226">
        <ele>862.92</ele>
        <time>2019-09-28T12:09:12Z</time>
      </trkpt>
      <trkpt lat="44.97764" lon="5.43223">
        <ele>862.92</ele>
        <time>2019-09-28T12:09:31Z</time>
      </trkpt>
      <trkpt lat="44.97766" lon="5.43219">
        <ele>862.92</ele>
        <time>2019-09-28T12:09:53Z</time>
      </trkpt>
      <trkpt lat="44.97765" lon="5.43214">
        <ele>862.92</ele>
        <time>2019-09-28T12:10:17Z</time>
      </trkpt>
      <trkpt lat="44.97765" lon="5.43214">
        <ele>862.92</ele>
        <time>2019-09-28T12:10:41Z</time>
      </trkpt>
      <trkpt lat="44.97762" lon="5.4322">
        <ele>863.4</ele>
        <time>2019-09-28T12:11:00Z</time>
      </trkpt>
      <trkpt lat="44.97762" lon="5.4322">
        <ele>863.4</ele>
        <time>2019-09-28T12:11:21Z</time>
      </trkpt>
      <trkpt lat="44.9776" lon="5.43219">
        <ele>863.88</ele>
        <time>2019-09-28T12:11:51Z</time>
      </trkpt>
      <trkpt lat="44.97762" lon="5.4321">
        <ele>863.88</ele>
        <time>2019-09-28T12:12:21Z</time>
      </trkpt>
      <trkpt lat="44.97765" lon="5.43216">
        <ele>863.88</ele>
        <time>2019-09-28T12:12:47Z</time>
      </trkpt>
      <trkpt lat="44.97762" lon="5.43215">
        <ele>864.36</ele>
        <time>2019-09-28T12:13:19Z</time>
      </trkpt>
      <trkpt lat="44.97761" lon="5.43206">
        <ele>864.36</ele>
        <time>2019-09-28T12:13:48Z</time>
      </trkpt>
      <trkpt lat="44.97759" lon="5.43203">
        <ele>864.84</ele>
        <time>2019-09-28T12:14:21Z</time>
      </trkpt>
      <trkpt lat="44.97756" lon="5.43209">
        <ele>864.84</ele>
        <time>2019-09-28T12:14:53Z</time>
      </trkpt>
      <trkpt lat="44.97757" lon="5.43203">
        <ele>864.84</ele>
        <time>2019-09-28T12:15:16Z</time>
      </trkpt>
      <trkpt lat="44.97755" lon="5.43208">
        <ele>865.32</ele>
        <time>2019-09-28T12:15:44Z</time>
      </trkpt>
      <trkpt lat="44.9776" lon="5.43207">
        <ele>865.32</ele>
        <time>2019-09-28T12:16:14Z</time>
      </trkpt>
      <trkpt lat="44.97756" lon="5.43202">
        <ele>865.8</ele>
        <time>2019-09-28T12:16:45Z</time>
      </trkpt>
      <trkpt lat="44.97754" lon="5.43211">
        <ele>865.8</ele>
        <time>2019-09-28T12:17:07Z</time>
      </trkpt>
      <trkpt lat="44.97746" lon="5.43212">
        <ele>867.25</ele>
        <time>2019-09-28T12:17:22Z</time>
      </trkpt>
      <trkpt lat="44.97737" lon="5.43212">
        <ele>867.73</ele>
        <time>2019-09-28T12:17:36Z</time>
      </trkpt>
      <trkpt lat="44.97727" lon="5.43207">
        <ele>868.69</ele>
        <time>2019-09-28T12:17:51Z</time>
      </trkpt>
      <trkpt lat="44.97716" lon="5.432">
        <ele>870.61</ele>
        <time>2019-09-28T12:18:07Z</time>
      </trkpt>
      <trkpt lat="44.97706" lon="5.43191">
        <ele>871.57</ele>
        <time>2019-09-28T12:18:20Z</time>
      </trkpt>
      <trkpt lat="44.97693" lon="5.43184">
        <ele>873.01</ele>
        <time>2019-09-28T12:18:36Z</time>
      </trkpt>
      <trkpt lat="44.97684" lon="5.43179">
        <ele>873.98</ele>
        <time>2019-09-28T12:18:51Z</time>
      </trkpt>
      <trkpt lat="44.97671" lon="5.43174">
        <ele>875.9</ele>
        <time>2019-09-28T12:19:10Z</time>
      </trkpt>
      <trkpt lat="44.97656" lon="5.43172">
        <ele>876.86</ele>
        <time>2019-09-28T12:19:27Z</time>
      </trkpt>
      <trkpt lat="44.97643" lon="5.43167">
        <ele>877.34</ele>
        <time>2019-09-28T12:19:42Z</time>
      </trkpt>
      <trkpt lat="44.97627" lon="5.43162">
        <ele>878.3</ele>
        <time>2019-09-28T12:19:58Z</time>
      </trkpt>
      <trkpt lat="44.97616" lon="5.43157">
        <ele>879.74</ele>
        <time>2019-09-28T12:20:15Z</time>
      </trkpt>
      <trkpt lat="44.97604" lon="5.43154">
        <ele>880.71</ele>
        <time>2019-09-28T12:20:30Z</time>
      </trkpt>
      <trkpt lat="44.97592" lon="5.43149">
        <ele>881.67</ele>
        <time>2019-09-28T12:20:45Z</time>
      </trkpt>
      <trkpt lat="44.97577" lon="5.43143">
        <ele>882.15</ele>
        <time>2019-09-28T12:21:01Z</time>
      </trkpt>
      <trkpt lat="44.97565" lon="5.4314">
        <ele>882.63</ele>
        <time>2019-09-28T12:21:18Z</time>
      </trkpt>
      <trkpt lat="44.97554" lon="5.43139">
        <ele>881.19</ele>
        <time>2019-09-28T12:21:35Z</time>
      </trkpt>
      <trkpt lat="44.97548" lon="5.43141">
        <ele>877.82</ele>
        <time>2019-09-28T12:21:47Z</time>
      </trkpt>
      <trkpt lat="44.97548" lon="5.43141">
        <ele>883.11</ele>
        <time>2019-09-28T12:21:48Z</time>
      </trkpt>
      <trkpt lat="44.97545" lon="5.43141">
        <ele>880.71</ele>
        <time>2019-09-28T12:22:18Z</time>
      </trkpt>
      <trkpt lat="44.97543" lon="5.4314">
        <ele>880.71</ele>
        <time>2019-09-28T12:22:39Z</time>
      </trkpt>
      <trkpt lat="44.97542" lon="5.4314">
        <ele>876.86</ele>
        <time>2019-09-28T12:22:45Z</time>
      </trkpt>
      <trkpt lat="44.97543" lon="5.4314">
        <ele>883.11</ele>
        <time>2019-09-28T12:22:46Z</time>
      </trkpt>
      <trkpt lat="44.97543" lon="5.43136">
        <ele>880.71</ele>
        <time>2019-09-28T12:23:11Z</time>
      </trkpt>
      <trkpt lat="44.97542" lon="5.43136">
        <ele>881.19</ele>
        <time>2019-09-28T12:23:22Z</time>
      </trkpt>
      <trkpt lat="44.9754" lon="5.43138">
        <ele>881.19</ele>
        <time>2019-09-28T12:23:45Z</time>
      </trkpt>
      <trkpt lat="44.97537" lon="5.43136">
        <ele>881.19</ele>
        <time>2019-09-28T12:24:01Z</time>
      </trkpt>
      <trkpt lat="44.97537" lon="5.43131">
        <ele>881.19</ele>
        <time>2019-09-28T12:24:33Z</time>
      </trkpt>
      <trkpt lat="44.97524" lon="5.43124">
        <ele>880.71</ele>
        <time>2019-09-28T12:24:50Z</time>
      </trkpt>
      <trkpt lat="44.9751" lon="5.43111">
        <ele>880.71</ele>
        <time>2019-09-28T12:25:10Z</time>
      </trkpt>
      <trkpt lat="44.97495" lon="5.43096">
        <ele>880.71</ele>
        <time>2019-09-28T12:25:31Z</time>
      </trkpt>
      <trkpt lat="44.97485" lon="5.43088">
        <ele>880.71</ele>
        <time>2019-09-28T12:25:46Z</time>
      </trkpt>
      <trkpt lat="44.9747" lon="5.43082">
        <ele>880.22</ele>
        <time>2019-09-28T12:26:04Z</time>
      </trkpt>
      <trkpt lat="44.97453" lon="5.43072">
        <ele>880.22</ele>
        <time>2019-09-28T12:26:23Z</time>
      </trkpt>
      <trkpt lat="44.97443" lon="5.43066">
        <ele>881.67</ele>
        <time>2019-09-28T12:26:39Z</time>
      </trkpt>
      <trkpt lat="44.97434" lon="5.43059">
        <ele>882.15</ele>
        <time>2019-09-28T12:26:55Z</time>
      </trkpt>
      <trkpt lat="44.97423" lon="5.43051">
        <ele>882.15</ele>
        <time>2019-09-28T12:27:13Z</time>
      </trkpt>
      <trkpt lat="44.9741" lon="5.4304">
        <ele>882.15</ele>
        <time>2019-09-28T12:27:33Z</time>
      </trkpt>
      <trkpt lat="44.97397" lon="5.4303">
        <ele>882.15</ele>
        <time>2019-09-28T12:27:50Z</time>
      </trkpt>
      <trkpt lat="44.97379" lon="5.43023">
        <ele>882.15</ele>
        <time>2019-09-28T12:28:07Z</time>
      </trkpt>
      <trkpt lat="44.97361" lon="5.43023">
        <ele>882.63</ele>
        <time>2019-09-28T12:28:24Z</time>
      </trkpt>
      <trkpt lat="44.97349" lon="5.43022">
        <ele>882.63</ele>
        <time>2019-09-28T12:28:42Z</time>
      </trkpt>
      <trkpt lat="44.97343" lon="5.43022">
        <ele>883.59</ele>
        <time>2019-09-28T12:29:03Z</time>
      </trkpt>
      <trkpt lat="44.97328" lon="5.4302">
        <ele>883.59</ele>
        <time>2019-09-28T12:29:20Z</time>
      </trkpt>
      <trkpt lat="44.97321" lon="5.43018">
        <ele>883.59</ele>
        <time>2019-09-28T12:29:28Z</time>
      </trkpt>
      <trkpt lat="44.97305" lon="5.43011">
        <ele>884.07</ele>
        <time>2019-09-28T12:29:44Z</time>
      </trkpt>
      <trkpt lat="44.97291" lon="5.43004">
        <ele>884.55</ele>
        <time>2019-09-28T12:30:00Z</time>
      </trkpt>
      <trkpt lat="44.97284" lon="5.43001">
        <ele>885.03</ele>
        <time>2019-09-28T12:30:08Z</time>
      </trkpt>
      <trkpt lat="44.97268" lon="5.42986">
        <ele>886.47</ele>
        <time>2019-09-28T12:30:28Z</time>
      </trkpt>
      <trkpt lat="44.97252" lon="5.42984">
        <ele>886.47</ele>
        <time>2019-09-28T12:30:48Z</time>
      </trkpt>
      <trkpt lat="44.97237" lon="5.42982">
        <ele>886.47</ele>
        <time>2019-09-28T12:31:05Z</time>
      </trkpt>
      <trkpt lat="44.97226" lon="5.42979">
        <ele>886.47</ele>
        <time>2019-09-28T12:31:22Z</time>
      </trkpt>
      <trkpt lat="44.97208" lon="5.42974">
        <ele>886.47</ele>
        <time>2019-09-28T12:31:42Z</time>
      </trkpt>
      <trkpt lat="44.97192" lon="5.42968">
        <ele>886.47</ele>
        <time>2019-09-28T12:31:59Z</time>
      </trkpt>
      <trkpt lat="44.97172" lon="5.4296">
        <ele>885.03</ele>
        <time>2019-09-28T12:32:19Z</time>
      </trkpt>
      <trkpt lat="44.97156" lon="5.42949">
        <ele>884.55</ele>
        <time>2019-09-28T12:32:39Z</time>
      </trkpt>
      <trkpt lat="44.9714" lon="5.42937">
        <ele>884.07</ele>
        <time>2019-09-28T12:32:58Z</time>
      </trkpt>
      <trkpt lat="44.97125" lon="5.42928">
        <ele>884.07</ele>
        <time>2019-09-28T12:33:17Z</time>
      </trkpt>
      <trkpt lat="44.97122" lon="5.42926">
        <ele>884.07</ele>
        <time>2019-09-28T12:33:32Z</time>
      </trkpt>
      <trkpt lat="44.97121" lon="5.42927">
        <ele>884.07</ele>
        <time>2019-09-28T12:33:49Z</time>
      </trkpt>
      <trkpt lat="44.97115" lon="5.4292">
        <ele>883.59</ele>
        <time>2019-09-28T12:34:03Z</time>
      </trkpt>
      <trkpt lat="44.97094" lon="5.42913">
        <ele>883.59</ele>
        <time>2019-09-28T12:34:25Z</time>
      </trkpt>
      <trkpt lat="44.97077" lon="5.42909">
        <ele>882.63</ele>
        <time>2019-09-28T12:34:45Z</time>
      </trkpt>
      <trkpt lat="44.97056" lon="5.42902">
        <ele>882.15</ele>
        <time>2019-09-28T12:35:06Z</time>
      </trkpt>
      <trkpt lat="44.97032" lon="5.42901">
        <ele>881.67</ele>
        <time>2019-09-28T12:35:29Z</time>
      </trkpt>
      <trkpt lat="44.97014" lon="5.42902">
        <ele>881.19</ele>
        <time>2019-09-28T12:35:48Z</time>
      </trkpt>
      <trkpt lat="44.97" lon="5.42901">
        <ele>881.67</ele>
        <time>2019-09-28T12:36:04Z</time>
      </trkpt>
      <trkpt lat="44.96982" lon="5.42902">
        <ele>880.71</ele>
        <time>2019-09-28T12:36:24Z</time>
      </trkpt>
      <trkpt lat="44.96966" lon="5.42902">
        <ele>880.22</ele>
        <time>2019-09-28T12:36:41Z</time>
      </trkpt>
      <trkpt lat="44.96947" lon="5.42902">
        <ele>879.74</ele>
        <time>2019-09-28T12:37:02Z</time>
      </trkpt>
      <trkpt lat="44.9693" lon="5.42904">
        <ele>879.26</ele>
        <time>2019-09-28T12:37:22Z</time>
      </trkpt>
      <trkpt lat="44.96912" lon="5.42905">
        <ele>878.3</ele>
        <time>2019-09-28T12:37:44Z</time>
      </trkpt>
      <trkpt lat="44.969" lon="5.42905">
        <ele>878.3</ele>
        <time>2019-09-28T12:38:01Z</time>
      </trkpt>
      <trkpt lat="44.969" lon="5.42903">
        <ele>878.3</ele>
        <time>2019-09-28T12:38:23Z</time>
      </trkpt>
      <trkpt lat="44.96899" lon="5.42904">
        <ele>878.3</ele>
        <time>2019-09-28T12:38:31Z</time>
      </trkpt>
      <trkpt lat="44.96898" lon="5.42902">
        <ele>879.74</ele>
        <time>2019-09-28T12:38:34Z</time>
      </trkpt>
      <trkpt lat="44.96899" lon="5.42903">
        <ele>875.9</ele>
        <time>2019-09-28T12:38:45Z</time>
      </trkpt>
      <trkpt lat="44.96899" lon="5.42903">
        <ele>881.19</ele>
        <time>2019-09-28T12:38:46Z</time>
      </trkpt>
      <trkpt lat="44.96896" lon="5.42901">
        <ele>878.3</ele>
        <time>2019-09-28T12:39:03Z</time>
      </trkpt>
      <trkpt lat="44.96877" lon="5.42892">
        <ele>877.82</ele>
        <time>2019-09-28T12:39:27Z</time>
      </trkpt>
      <trkpt lat="44.96868" lon="5.42883">
        <ele>877.34</ele>
        <time>2019-09-28T12:39:48Z</time>
      </trkpt>
      <trkpt lat="44.96867" lon="5.42884">
        <ele>877.34</ele>
        <time>2019-09-28T12:40:14Z</time>
      </trkpt>
      <trkpt lat="44.96855" lon="5.42871">
        <ele>877.34</ele>
        <time>2019-09-28T12:40:34Z</time>
      </trkpt>
      <trkpt lat="44.96844" lon="5.42848">
        <ele>875.9</ele>
        <time>2019-09-28T12:40:57Z</time>
      </trkpt>
      <trkpt lat="44.96833" lon="5.42821">
        <ele>874.94</ele>
        <time>2019-09-28T12:41:21Z</time>
      </trkpt>
      <trkpt lat="44.96823" lon="5.42799">
        <ele>873.5</ele>
        <time>2019-09-28T12:41:41Z</time>
      </trkpt>
      <trkpt lat="44.96812" lon="5.42776">
        <ele>873.01</ele>
        <time>2019-09-28T12:42:02Z</time>
      </trkpt>
      <trkpt lat="44.96798" lon="5.42754">
        <ele>873.01</ele>
        <time>2019-09-28T12:42:25Z</time>
      </trkpt>
      <trkpt lat="44.96782" lon="5.4274">
        <ele>872.53</ele>
        <time>2019-09-28T12:42:46Z</time>
      </trkpt>
      <trkpt lat="44.96769" lon="5.42733">
        <ele>872.05</ele>
        <time>2019-09-28T12:43:01Z</time>
      </trkpt>
      <trkpt lat="44.96747" lon="5.42721">
        <ele>871.09</ele>
        <time>2019-09-28T12:43:26Z</time>
      </trkpt>
      <trkpt lat="44.96724" lon="5.42708">
        <ele>871.09</ele>
        <time>2019-09-28T12:43:52Z</time>
      </trkpt>
      <trkpt lat="44.96703" lon="5.42691">
        <ele>871.09</ele>
        <time>2019-09-28T12:44:17Z</time>
      </trkpt>
      <trkpt lat="44.96701" lon="5.42689">
        <ele>871.09</ele>
        <time>2019-09-28T12:44:20Z</time>
      </trkpt>
      <trkpt lat="44.96686" lon="5.42669">
        <ele>871.09</ele>
        <time>2019-09-28T12:44:42Z</time>
      </trkpt>
      <trkpt lat="44.96681" lon="5.42663">
        <ele>871.09</ele>
        <time>2019-09-28T12:44:49Z</time>
      </trkpt>
      <trkpt lat="44.96668" lon="5.42631">
        <ele>871.09</ele>
        <time>2019-09-28T12:45:16Z</time>
      </trkpt>
      <trkpt lat="44.96653" lon="5.42607">
        <ele>871.09</ele>
        <time>2019-09-28T12:45:39Z</time>
      </trkpt>
      <trkpt lat="44.96635" lon="5.42587">
        <ele>872.05</ele>
        <time>2019-09-28T12:46:03Z</time>
      </trkpt>
      <trkpt lat="44.96618" lon="5.42571">
        <ele>872.53</ele>
        <time>2019-09-28T12:46:23Z</time>
      </trkpt>
      <trkpt lat="44.96603" lon="5.42551">
        <ele>873.5</ele>
        <time>2019-09-28T12:46:45Z</time>
      </trkpt>
      <trkpt lat="44.9659" lon="5.42528">
        <ele>873.5</ele>
        <time>2019-09-28T12:47:06Z</time>
      </trkpt>
      <trkpt lat="44.96577" lon="5.42501">
        <ele>873.98</ele>
        <time>2019-09-28T12:47:26Z</time>
      </trkpt>
      <trkpt lat="44.96567" lon="5.42482">
        <ele>874.94</ele>
        <time>2019-09-28T12:47:45Z</time>
      </trkpt>
      <trkpt lat="44.96557" lon="5.42456">
        <ele>877.82</ele>
        <time>2019-09-28T12:48:06Z</time>
      </trkpt>
      <trkpt lat="44.96552" lon="5.42441">
        <ele>877.82</ele>
        <time>2019-09-28T12:48:21Z</time>
      </trkpt>
      <trkpt lat="44.96549" lon="5.42424">
        <ele>874.94</ele>
        <time>2019-09-28T12:48:34Z</time>
      </trkpt>
      <trkpt lat="44.96549" lon="5.42424">
        <ele>882.15</ele>
        <time>2019-09-28T12:48:35Z</time>
      </trkpt>
      <trkpt lat="44.96549" lon="5.42422">
        <ele>878.3</ele>
        <time>2019-09-28T12:48:36Z</time>
      </trkpt>
      <trkpt lat="44.96547" lon="5.42394">
        <ele>880.71</ele>
        <time>2019-09-28T12:48:58Z</time>
      </trkpt>
      <trkpt lat="44.96541" lon="5.42372">
        <ele>881.67</ele>
        <time>2019-09-28T12:49:22Z</time>
      </trkpt>
      <trkpt lat="44.9654" lon="5.42359">
        <ele>883.11</ele>
        <time>2019-09-28T12:49:40Z</time>
      </trkpt>
      <trkpt lat="44.96535" lon="5.42337">
        <ele>884.55</ele>
        <time>2019-09-28T12:50:00Z</time>
      </trkpt>
      <trkpt lat="44.96531" lon="5.42321">
        <ele>885.99</ele>
        <time>2019-09-28T12:50:16Z</time>
      </trkpt>
      <trkpt lat="44.96525" lon="5.42308">
        <ele>887.43</ele>
        <time>2019-09-28T12:50:30Z</time>
      </trkpt>
      <trkpt lat="44.9652" lon="5.42291">
        <ele>888.88</ele>
        <time>2019-09-28T12:50:47Z</time>
      </trkpt>
      <trkpt lat="44.96522" lon="5.42272">
        <ele>891.76</ele>
        <time>2019-09-28T12:51:04Z</time>
      </trkpt>
      <trkpt lat="44.96522" lon="5.42253">
        <ele>894.16</ele>
        <time>2019-09-28T12:51:23Z</time>
      </trkpt>
      <trkpt lat="44.96521" lon="5.42242">
        <ele>896.57</ele>
        <time>2019-09-28T12:51:40Z</time>
      </trkpt>
      <trkpt lat="44.96514" lon="5.42235">
        <ele>898.49</ele>
        <time>2019-09-28T12:51:56Z</time>
      </trkpt>
      <trkpt lat="44.96515" lon="5.42223">
        <ele>899.45</ele>
        <time>2019-09-28T12:52:12Z</time>
      </trkpt>
      <trkpt lat="44.96527" lon="5.42216">
        <ele>900.89</ele>
        <time>2019-09-28T12:52:30Z</time>
      </trkpt>
      <trkpt lat="44.96536" lon="5.42198">
        <ele>901.37</ele>
        <time>2019-09-28T12:52:47Z</time>
      </trkpt>
      <trkpt lat="44.96539" lon="5.42181">
        <ele>902.33</ele>
        <time>2019-09-28T12:53:04Z</time>
      </trkpt>
      <trkpt lat="44.96538" lon="5.42175">
        <ele>902.82</ele>
        <time>2019-09-28T12:53:24Z</time>
      </trkpt>
      <trkpt lat="44.9654" lon="5.42152">
        <ele>903.3</ele>
        <time>2019-09-28T12:53:43Z</time>
      </trkpt>
      <trkpt lat="44.96542" lon="5.42135">
        <ele>901.85</ele>
        <time>2019-09-28T12:53:58Z</time>
      </trkpt>
      <trkpt lat="44.96549" lon="5.42106">
        <ele>901.85</ele>
        <time>2019-09-28T12:54:23Z</time>
      </trkpt>
      <trkpt lat="44.96558" lon="5.42086">
        <ele>901.85</ele>
        <time>2019-09-28T12:54:43Z</time>
      </trkpt>
      <trkpt lat="44.96569" lon="5.42061">
        <ele>901.85</ele>
        <time>2019-09-28T12:55:07Z</time>
      </trkpt>
      <trkpt lat="44.96575" lon="5.42039">
        <ele>900.41</ele>
        <time>2019-09-28T12:55:28Z</time>
      </trkpt>
      <trkpt lat="44.96584" lon="5.42017">
        <ele>898.97</ele>
        <time>2019-09-28T12:55:49Z</time>
      </trkpt>
      <trkpt lat="44.96591" lon="5.41998">
        <ele>898.01</ele>
        <time>2019-09-28T12:56:10Z</time>
      </trkpt>
      <trkpt lat="44.96601" lon="5.41974">
        <ele>896.09</ele>
        <time>2019-09-28T12:56:35Z</time>
      </trkpt>
      <trkpt lat="44.9661" lon="5.41955">
        <ele>895.12</ele>
        <time>2019-09-28T12:56:56Z</time>
      </trkpt>
      <trkpt lat="44.96618" lon="5.41937">
        <ele>893.68</ele>
        <time>2019-09-28T12:57:16Z</time>
      </trkpt>
      <trkpt lat="44.96629" lon="5.41921">
        <ele>892.72</ele>
        <time>2019-09-28T12:57:37Z</time>
      </trkpt>
      <trkpt lat="44.96639" lon="5.41905">
        <ele>891.28</ele>
        <time>2019-09-28T12:57:58Z</time>
      </trkpt>
      <trkpt lat="44.96644" lon="5.41888">
        <ele>890.32</ele>
        <time>2019-09-28T12:58:15Z</time>
      </trkpt>
      <trkpt lat="44.9665" lon="5.41868">
        <ele>889.84</ele>
        <time>2019-09-28T12:58:34Z</time>
      </trkpt>
      <trkpt lat="44.96662" lon="5.41849">
        <ele>889.36</ele>
        <time>2019-09-28T12:58:54Z</time>
      </trkpt>
      <trkpt lat="44.96665" lon="5.41831">
        <ele>889.36</ele>
        <time>2019-09-28T12:59:11Z</time>
      </trkpt>
      <trkpt lat="44.96672" lon="5.41812">
        <ele>889.36</ele>
        <time>2019-09-28T12:59:28Z</time>
      </trkpt>
      <trkpt lat="44.96675" lon="5.41795">
        <ele>889.36</ele>
        <time>2019-09-28T12:59:46Z</time>
      </trkpt>
      <trkpt lat="44.96672" lon="5.41799">
        <ele>890.8</ele>
        <time>2019-09-28T12:59:58Z</time>
      </trkpt>
      <trkpt lat="44.96664" lon="5.41797">
        <ele>892.72</ele>
        <time>2019-09-28T13:00:16Z</time>
      </trkpt>
      <trkpt lat="44.96659" lon="5.41794">
        <ele>895.12</ele>
        <time>2019-09-28T13:00:30Z</time>
      </trkpt>
      <trkpt lat="44.96654" lon="5.41787">
        <ele>896.57</ele>
        <time>2019-09-28T13:00:48Z</time>
      </trkpt>
      <trkpt lat="44.9665" lon="5.4179">
        <ele>897.05</ele>
        <time>2019-09-28T13:01:04Z</time>
      </trkpt>
      <trkpt lat="44.96649" lon="5.41785">
        <ele>897.53</ele>
        <time>2019-09-28T13:01:26Z</time>
      </trkpt>
      <trkpt lat="44.96644" lon="5.41779">
        <ele>897.53</ele>
        <time>2019-09-28T13:01:38Z</time>
      </trkpt>
      <trkpt lat="44.9665" lon="5.41776">
        <ele>897.53</ele>
        <time>2019-09-28T13:01:54Z</time>
      </trkpt>
      <trkpt lat="44.96647" lon="5.41775">
        <ele>898.01</ele>
        <time>2019-09-28T13:02:07Z</time>
      </trkpt>
      <trkpt lat="44.96647" lon="5.41776">
        <ele>898.01</ele>
        <time>2019-09-28T13:02:21Z</time>
      </trkpt>
      <trkpt lat="44.96646" lon="5.41777">
        <ele>897.53</ele>
        <time>2019-09-28T13:02:38Z</time>
      </trkpt>
      <trkpt lat="44.96645" lon="5.41778">
        <ele>897.53</ele>
        <time>2019-09-28T13:02:58Z</time>
      </trkpt>
    </trkseg>
  </trk>
</gpx>